<?xml version="1.0" encoding="UTF-8" standalone="no" ?>
<gpx xmlns="http://www.topografix.com/GPX/1/1" xmlns:xsi="http://www.w3.org/2001/XMLSchema-instance" xsi:schemaLocation="http://www.topografix.com/GPX/1/1 http://www.topografix.com/GPX/1/1/gpx.xsd" version="1.1" creator="VisuGPX - https://www.visugpx.com">
  <metadata>
    <name>Soulaines/aubance - Rablay/Layon</name>
    <desc><![CDATA[Région d'Angers]]></desc>
  </metadata>
  <trk>
    <name><![CDATA[Soulaines/aubance - Rablay/Layon_1]]></name>
    <trkseg>
      <trkpt lat="47.36432" lon="-0.52491">
        <ele>55.8</ele>
        <time>2021-05-12T20:52:48Z</time>
      </trkpt>
      <trkpt lat="47.36423" lon="-0.52496">
        <ele>55.6</ele>
        <time>2021-05-12T20:52:50Z</time>
      </trkpt>
      <trkpt lat="47.36396" lon="-0.52514">
        <ele>54.4</ele>
        <time>2021-05-12T20:52:56Z</time>
      </trkpt>
      <trkpt lat="47.36333" lon="-0.52515">
        <ele>51.8</ele>
        <time>2021-05-12T20:53:09Z</time>
      </trkpt>
      <trkpt lat="47.36272" lon="-0.525">
        <ele>50.8</ele>
        <time>2021-05-12T20:53:21Z</time>
      </trkpt>
      <trkpt lat="47.36262" lon="-0.52498">
        <ele>50.8</ele>
        <time>2021-05-12T20:53:23Z</time>
      </trkpt>
      <trkpt lat="47.36251" lon="-0.52499">
        <ele>50.8</ele>
        <time>2021-05-12T20:53:25Z</time>
      </trkpt>
      <trkpt lat="47.36242" lon="-0.52513">
        <ele>51.2</ele>
        <time>2021-05-12T20:53:28Z</time>
      </trkpt>
      <trkpt lat="47.36236" lon="-0.52532">
        <ele>51.6</ele>
        <time>2021-05-12T20:53:31Z</time>
      </trkpt>
      <trkpt lat="47.36227" lon="-0.5256">
        <ele>52</ele>
        <time>2021-05-12T20:53:35Z</time>
      </trkpt>
      <trkpt lat="47.36223" lon="-0.52575">
        <ele>52.2</ele>
        <time>2021-05-12T20:53:37Z</time>
      </trkpt>
      <trkpt lat="47.36217" lon="-0.52604">
        <ele>53</ele>
        <time>2021-05-12T20:53:41Z</time>
      </trkpt>
      <trkpt lat="47.36204" lon="-0.5265">
        <ele>54.4</ele>
        <time>2021-05-12T20:53:48Z</time>
      </trkpt>
      <trkpt lat="47.36167" lon="-0.52758">
        <ele>57.8</ele>
        <time>2021-05-12T20:54:05Z</time>
      </trkpt>
      <trkpt lat="47.36147" lon="-0.52809">
        <ele>60</ele>
        <time>2021-05-12T20:54:13Z</time>
      </trkpt>
      <trkpt lat="47.36129" lon="-0.52849">
        <ele>61.8</ele>
        <time>2021-05-12T20:54:19Z</time>
      </trkpt>
      <trkpt lat="47.36104" lon="-0.5291">
        <ele>64.2</ele>
        <time>2021-05-12T20:54:29Z</time>
      </trkpt>
      <trkpt lat="47.36087" lon="-0.52989">
        <ele>68.4</ele>
        <time>2021-05-12T20:54:40Z</time>
      </trkpt>
      <trkpt lat="47.36072" lon="-0.53069">
        <ele>71.4</ele>
        <time>2021-05-12T20:54:51Z</time>
      </trkpt>
      <trkpt lat="47.36063" lon="-0.53131">
        <ele>72.8</ele>
        <time>2021-05-12T20:55:00Z</time>
      </trkpt>
      <trkpt lat="47.36042" lon="-0.53212">
        <ele>75.6</ele>
        <time>2021-05-12T20:55:12Z</time>
      </trkpt>
      <trkpt lat="47.36007" lon="-0.53327">
        <ele>79.2</ele>
        <time>2021-05-12T20:55:29Z</time>
      </trkpt>
      <trkpt lat="47.35989" lon="-0.5338">
        <ele>80.4</ele>
        <time>2021-05-12T20:55:37Z</time>
      </trkpt>
      <trkpt lat="47.35925" lon="-0.53365">
        <ele>81.2</ele>
        <time>2021-05-12T20:55:50Z</time>
      </trkpt>
      <trkpt lat="47.35855" lon="-0.53342">
        <ele>80</ele>
        <time>2021-05-12T20:56:04Z</time>
      </trkpt>
      <trkpt lat="47.35816" lon="-0.53325">
        <ele>79.6</ele>
        <time>2021-05-12T20:56:12Z</time>
      </trkpt>
      <trkpt lat="47.35754" lon="-0.53303">
        <ele>77.2</ele>
        <time>2021-05-12T20:56:25Z</time>
      </trkpt>
      <trkpt lat="47.35743" lon="-0.53301">
        <ele>77</ele>
        <time>2021-05-12T20:56:27Z</time>
      </trkpt>
      <trkpt lat="47.35701" lon="-0.53289">
        <ele>77</ele>
        <time>2021-05-12T20:56:36Z</time>
      </trkpt>
      <trkpt lat="47.35651" lon="-0.53282">
        <ele>79</ele>
        <time>2021-05-12T20:56:46Z</time>
      </trkpt>
      <trkpt lat="47.35635" lon="-0.53277">
        <ele>79.6</ele>
        <time>2021-05-12T20:56:49Z</time>
      </trkpt>
      <trkpt lat="47.35565" lon="-0.53246">
        <ele>80.8</ele>
        <time>2021-05-12T20:57:04Z</time>
      </trkpt>
      <trkpt lat="47.35479" lon="-0.53203">
        <ele>80.2</ele>
        <time>2021-05-12T20:57:22Z</time>
      </trkpt>
      <trkpt lat="47.35437" lon="-0.53187">
        <ele>80</ele>
        <time>2021-05-12T20:57:31Z</time>
      </trkpt>
      <trkpt lat="47.35316" lon="-0.53164">
        <ele>80</ele>
        <time>2021-05-12T20:57:55Z</time>
      </trkpt>
      <trkpt lat="47.3526" lon="-0.53141">
        <ele>79.8</ele>
        <time>2021-05-12T20:58:07Z</time>
      </trkpt>
      <trkpt lat="47.35234" lon="-0.53131">
        <ele>79.2</ele>
        <time>2021-05-12T20:58:12Z</time>
      </trkpt>
      <trkpt lat="47.35205" lon="-0.53116">
        <ele>78.6</ele>
        <time>2021-05-12T20:58:18Z</time>
      </trkpt>
      <trkpt lat="47.35189" lon="-0.53106">
        <ele>78.2</ele>
        <time>2021-05-12T20:58:22Z</time>
      </trkpt>
      <trkpt lat="47.35131" lon="-0.53054">
        <ele>76.8</ele>
        <time>2021-05-12T20:58:35Z</time>
      </trkpt>
      <trkpt lat="47.35128" lon="-0.53055">
        <ele>76.6</ele>
        <time>2021-05-12T20:58:36Z</time>
      </trkpt>
      <trkpt lat="47.35122" lon="-0.53062">
        <ele>76.4</ele>
        <time>2021-05-12T20:58:38Z</time>
      </trkpt>
      <trkpt lat="47.35083" lon="-0.53138">
        <ele>76</ele>
        <time>2021-05-12T20:58:51Z</time>
      </trkpt>
      <trkpt lat="47.35052" lon="-0.53194">
        <ele>76</ele>
        <time>2021-05-12T20:59:00Z</time>
      </trkpt>
      <trkpt lat="47.35006" lon="-0.53257">
        <ele>75.4</ele>
        <time>2021-05-12T20:59:13Z</time>
      </trkpt>
      <trkpt lat="47.34977" lon="-0.53299">
        <ele>75.6</ele>
        <time>2021-05-12T20:59:21Z</time>
      </trkpt>
      <trkpt lat="47.34961" lon="-0.53339">
        <ele>75.2</ele>
        <time>2021-05-12T20:59:27Z</time>
      </trkpt>
      <trkpt lat="47.34949" lon="-0.53363">
        <ele>75</ele>
        <time>2021-05-12T20:59:32Z</time>
      </trkpt>
      <trkpt lat="47.34923" lon="-0.5341">
        <ele>75.8</ele>
        <time>2021-05-12T20:59:40Z</time>
      </trkpt>
      <trkpt lat="47.3488" lon="-0.53467">
        <ele>76.6</ele>
        <time>2021-05-12T20:59:51Z</time>
      </trkpt>
      <trkpt lat="47.34833" lon="-0.53518">
        <ele>77.4</ele>
        <time>2021-05-12T21:00:03Z</time>
      </trkpt>
      <trkpt lat="47.34745" lon="-0.5363">
        <ele>78.6</ele>
        <time>2021-05-12T21:00:26Z</time>
      </trkpt>
      <trkpt lat="47.34646" lon="-0.53794">
        <ele>80.8</ele>
        <time>2021-05-12T21:00:56Z</time>
      </trkpt>
      <trkpt lat="47.34601" lon="-0.53846">
        <ele>82</ele>
        <time>2021-05-12T21:01:08Z</time>
      </trkpt>
      <trkpt lat="47.34572" lon="-0.53858">
        <ele>82.8</ele>
        <time>2021-05-12T21:01:14Z</time>
      </trkpt>
      <trkpt lat="47.34558" lon="-0.53863">
        <ele>83</ele>
        <time>2021-05-12T21:01:16Z</time>
      </trkpt>
      <trkpt lat="47.34512" lon="-0.53901">
        <ele>84</ele>
        <time>2021-05-12T21:01:27Z</time>
      </trkpt>
      <trkpt lat="47.34492" lon="-0.53922">
        <ele>84.8</ele>
        <time>2021-05-12T21:01:32Z</time>
      </trkpt>
      <trkpt lat="47.34442" lon="-0.53965">
        <ele>85.6</ele>
        <time>2021-05-12T21:01:44Z</time>
      </trkpt>
      <trkpt lat="47.34389" lon="-0.53995">
        <ele>86.2</ele>
        <time>2021-05-12T21:01:55Z</time>
      </trkpt>
      <trkpt lat="47.34337" lon="-0.54032">
        <ele>87.6</ele>
        <time>2021-05-12T21:02:07Z</time>
      </trkpt>
      <trkpt lat="47.34287" lon="-0.5408">
        <ele>88.8</ele>
        <time>2021-05-12T21:02:18Z</time>
      </trkpt>
      <trkpt lat="47.34242" lon="-0.54137">
        <ele>90</ele>
        <time>2021-05-12T21:02:30Z</time>
      </trkpt>
      <trkpt lat="47.34197" lon="-0.54189">
        <ele>90.2</ele>
        <time>2021-05-12T21:02:42Z</time>
      </trkpt>
      <trkpt lat="47.34163" lon="-0.54218">
        <ele>90.4</ele>
        <time>2021-05-12T21:02:50Z</time>
      </trkpt>
      <trkpt lat="47.34077" lon="-0.5428">
        <ele>90.4</ele>
        <time>2021-05-12T21:03:09Z</time>
      </trkpt>
      <trkpt lat="47.34029" lon="-0.54328">
        <ele>89.6</ele>
        <time>2021-05-12T21:03:20Z</time>
      </trkpt>
      <trkpt lat="47.34018" lon="-0.54341">
        <ele>89.4</ele>
        <time>2021-05-12T21:03:23Z</time>
      </trkpt>
      <trkpt lat="47.34002" lon="-0.54354">
        <ele>89.2</ele>
        <time>2021-05-12T21:03:27Z</time>
      </trkpt>
      <trkpt lat="47.33947" lon="-0.54385">
        <ele>88.8</ele>
        <time>2021-05-12T21:03:39Z</time>
      </trkpt>
      <trkpt lat="47.3381" lon="-0.54495">
        <ele>89.8</ele>
        <time>2021-05-12T21:04:10Z</time>
      </trkpt>
      <trkpt lat="47.33803" lon="-0.54495">
        <ele>89.8</ele>
        <time>2021-05-12T21:04:11Z</time>
      </trkpt>
      <trkpt lat="47.33796" lon="-0.54489">
        <ele>90</ele>
        <time>2021-05-12T21:04:13Z</time>
      </trkpt>
      <trkpt lat="47.33742" lon="-0.54419">
        <ele>90.2</ele>
        <time>2021-05-12T21:04:27Z</time>
      </trkpt>
      <trkpt lat="47.33695" lon="-0.54365">
        <ele>91.4</ele>
        <time>2021-05-12T21:04:39Z</time>
      </trkpt>
      <trkpt lat="47.33645" lon="-0.54314">
        <ele>92.4</ele>
        <time>2021-05-12T21:04:51Z</time>
      </trkpt>
      <trkpt lat="47.33629" lon="-0.54294">
        <ele>92.8</ele>
        <time>2021-05-12T21:04:56Z</time>
      </trkpt>
      <trkpt lat="47.33622" lon="-0.54287">
        <ele>93</ele>
        <time>2021-05-12T21:04:57Z</time>
      </trkpt>
      <trkpt lat="47.33618" lon="-0.54285">
        <ele>93</ele>
        <time>2021-05-12T21:04:58Z</time>
      </trkpt>
      <trkpt lat="47.33614" lon="-0.54284">
        <ele>93</ele>
        <time>2021-05-12T21:04:59Z</time>
      </trkpt>
      <trkpt lat="47.3361" lon="-0.54286">
        <ele>93</ele>
        <time>2021-05-12T21:05:00Z</time>
      </trkpt>
      <trkpt lat="47.336" lon="-0.54296">
        <ele>93</ele>
        <time>2021-05-12T21:05:02Z</time>
      </trkpt>
      <trkpt lat="47.33582" lon="-0.54331">
        <ele>93</ele>
        <time>2021-05-12T21:05:08Z</time>
      </trkpt>
      <trkpt lat="47.33554" lon="-0.54404">
        <ele>93</ele>
        <time>2021-05-12T21:05:20Z</time>
      </trkpt>
      <trkpt lat="47.33533" lon="-0.54485">
        <ele>93.2</ele>
        <time>2021-05-12T21:05:31Z</time>
      </trkpt>
      <trkpt lat="47.33516" lon="-0.54564">
        <ele>93.8</ele>
        <time>2021-05-12T21:05:43Z</time>
      </trkpt>
      <trkpt lat="47.33508" lon="-0.54637">
        <ele>93.4</ele>
        <time>2021-05-12T21:05:53Z</time>
      </trkpt>
      <trkpt lat="47.33506" lon="-0.54644">
        <ele>93.2</ele>
        <time>2021-05-12T21:05:54Z</time>
      </trkpt>
      <trkpt lat="47.3349" lon="-0.54676">
        <ele>93</ele>
        <time>2021-05-12T21:05:59Z</time>
      </trkpt>
      <trkpt lat="47.33471" lon="-0.54692">
        <ele>92.6</ele>
        <time>2021-05-12T21:06:04Z</time>
      </trkpt>
      <trkpt lat="47.33437" lon="-0.54732">
        <ele>92</ele>
        <time>2021-05-12T21:06:12Z</time>
      </trkpt>
      <trkpt lat="47.33422" lon="-0.54759">
        <ele>91.6</ele>
        <time>2021-05-12T21:06:17Z</time>
      </trkpt>
      <trkpt lat="47.33392" lon="-0.54819">
        <ele>90.4</ele>
        <time>2021-05-12T21:06:27Z</time>
      </trkpt>
      <trkpt lat="47.33386" lon="-0.54824">
        <ele>90.2</ele>
        <time>2021-05-12T21:06:29Z</time>
      </trkpt>
      <trkpt lat="47.33341" lon="-0.54881">
        <ele>88.4</ele>
        <time>2021-05-12T21:06:40Z</time>
      </trkpt>
      <trkpt lat="47.33313" lon="-0.5492">
        <ele>86.6</ele>
        <time>2021-05-12T21:06:48Z</time>
      </trkpt>
      <trkpt lat="47.33274" lon="-0.54997">
        <ele>84.4</ele>
        <time>2021-05-12T21:07:01Z</time>
      </trkpt>
      <trkpt lat="47.33248" lon="-0.55059">
        <ele>82</ele>
        <time>2021-05-12T21:07:11Z</time>
      </trkpt>
      <trkpt lat="47.33221" lon="-0.5511">
        <ele>77.4</ele>
        <time>2021-05-12T21:07:20Z</time>
      </trkpt>
      <trkpt lat="47.33189" lon="-0.55158">
        <ele>73.8</ele>
        <time>2021-05-12T21:07:29Z</time>
      </trkpt>
      <trkpt lat="47.33163" lon="-0.55205">
        <ele>74.4</ele>
        <time>2021-05-12T21:07:37Z</time>
      </trkpt>
      <trkpt lat="47.33157" lon="-0.55212">
        <ele>75</ele>
        <time>2021-05-12T21:07:39Z</time>
      </trkpt>
      <trkpt lat="47.33152" lon="-0.55218">
        <ele>75.4</ele>
        <time>2021-05-12T21:07:40Z</time>
      </trkpt>
      <trkpt lat="47.33146" lon="-0.55222">
        <ele>75.8</ele>
        <time>2021-05-12T21:07:41Z</time>
      </trkpt>
      <trkpt lat="47.33122" lon="-0.55233">
        <ele>77</ele>
        <time>2021-05-12T21:07:46Z</time>
      </trkpt>
      <trkpt lat="47.33112" lon="-0.5524">
        <ele>77.6</ele>
        <time>2021-05-12T21:07:49Z</time>
      </trkpt>
      <trkpt lat="47.33103" lon="-0.5525">
        <ele>78</ele>
        <time>2021-05-12T21:07:51Z</time>
      </trkpt>
      <trkpt lat="47.33082" lon="-0.55278">
        <ele>79.2</ele>
        <time>2021-05-12T21:07:57Z</time>
      </trkpt>
      <trkpt lat="47.33053" lon="-0.5532">
        <ele>80.2</ele>
        <time>2021-05-12T21:08:05Z</time>
      </trkpt>
      <trkpt lat="47.33039" lon="-0.55345">
        <ele>81</ele>
        <time>2021-05-12T21:08:09Z</time>
      </trkpt>
      <trkpt lat="47.33018" lon="-0.55385">
        <ele>82.2</ele>
        <time>2021-05-12T21:08:16Z</time>
      </trkpt>
      <trkpt lat="47.33012" lon="-0.55393">
        <ele>82.2</ele>
        <time>2021-05-12T21:08:18Z</time>
      </trkpt>
      <trkpt lat="47.32955" lon="-0.55445">
        <ele>83.2</ele>
        <time>2021-05-12T21:08:31Z</time>
      </trkpt>
      <trkpt lat="47.32925" lon="-0.55484">
        <ele>84.6</ele>
        <time>2021-05-12T21:08:39Z</time>
      </trkpt>
      <trkpt lat="47.32879" lon="-0.55539">
        <ele>86.4</ele>
        <time>2021-05-12T21:08:51Z</time>
      </trkpt>
      <trkpt lat="47.32832" lon="-0.55584">
        <ele>87.8</ele>
        <time>2021-05-12T21:09:02Z</time>
      </trkpt>
      <trkpt lat="47.32791" lon="-0.55612">
        <ele>88.2</ele>
        <time>2021-05-12T21:09:11Z</time>
      </trkpt>
      <trkpt lat="47.32744" lon="-0.55665">
        <ele>88.2</ele>
        <time>2021-05-12T21:09:23Z</time>
      </trkpt>
      <trkpt lat="47.32732" lon="-0.55685">
        <ele>88.2</ele>
        <time>2021-05-12T21:09:27Z</time>
      </trkpt>
      <trkpt lat="47.32721" lon="-0.55707">
        <ele>88</ele>
        <time>2021-05-12T21:09:30Z</time>
      </trkpt>
      <trkpt lat="47.32707" lon="-0.55733">
        <ele>87.8</ele>
        <time>2021-05-12T21:09:35Z</time>
      </trkpt>
      <trkpt lat="47.327" lon="-0.55741">
        <ele>87.8</ele>
        <time>2021-05-12T21:09:37Z</time>
      </trkpt>
      <trkpt lat="47.32645" lon="-0.55767">
        <ele>89.2</ele>
        <time>2021-05-12T21:09:48Z</time>
      </trkpt>
      <trkpt lat="47.32636" lon="-0.55766">
        <ele>89.4</ele>
        <time>2021-05-12T21:09:50Z</time>
      </trkpt>
      <trkpt lat="47.32633" lon="-0.55763">
        <ele>89.4</ele>
        <time>2021-05-12T21:09:51Z</time>
      </trkpt>
      <trkpt lat="47.32629" lon="-0.55753">
        <ele>89.6</ele>
        <time>2021-05-12T21:09:52Z</time>
      </trkpt>
      <trkpt lat="47.32625" lon="-0.55741">
        <ele>89.8</ele>
        <time>2021-05-12T21:09:54Z</time>
      </trkpt>
      <trkpt lat="47.32604" lon="-0.55684">
        <ele>91</ele>
        <time>2021-05-12T21:10:03Z</time>
      </trkpt>
      <trkpt lat="47.32599" lon="-0.55683">
        <ele>91</ele>
        <time>2021-05-12T21:10:04Z</time>
      </trkpt>
      <trkpt lat="47.32597" lon="-0.55691">
        <ele>90.8</ele>
        <time>2021-05-12T21:10:05Z</time>
      </trkpt>
      <trkpt lat="47.32595" lon="-0.55697">
        <ele>90.6</ele>
        <time>2021-05-12T21:10:06Z</time>
      </trkpt>
      <trkpt lat="47.32565" lon="-0.55749">
        <ele>87.6</ele>
        <time>2021-05-12T21:10:15Z</time>
      </trkpt>
      <trkpt lat="47.32556" lon="-0.55767">
        <ele>86.4</ele>
        <time>2021-05-12T21:10:18Z</time>
      </trkpt>
      <trkpt lat="47.32548" lon="-0.55776">
        <ele>85.4</ele>
        <time>2021-05-12T21:10:20Z</time>
      </trkpt>
      <trkpt lat="47.3254" lon="-0.55782">
        <ele>84.4</ele>
        <time>2021-05-12T21:10:22Z</time>
      </trkpt>
      <trkpt lat="47.32511" lon="-0.55799">
        <ele>81</ele>
        <time>2021-05-12T21:10:28Z</time>
      </trkpt>
      <trkpt lat="47.32502" lon="-0.55805">
        <ele>80.2</ele>
        <time>2021-05-12T21:10:30Z</time>
      </trkpt>
      <trkpt lat="47.32493" lon="-0.55814">
        <ele>79.8</ele>
        <time>2021-05-12T21:10:32Z</time>
      </trkpt>
      <trkpt lat="47.32489" lon="-0.55819">
        <ele>79.6</ele>
        <time>2021-05-12T21:10:33Z</time>
      </trkpt>
      <trkpt lat="47.32487" lon="-0.55825">
        <ele>79.4</ele>
        <time>2021-05-12T21:10:34Z</time>
      </trkpt>
      <trkpt lat="47.32485" lon="-0.5583">
        <ele>79.4</ele>
        <time>2021-05-12T21:10:35Z</time>
      </trkpt>
      <trkpt lat="47.32487" lon="-0.55843">
        <ele>79.4</ele>
        <time>2021-05-12T21:10:37Z</time>
      </trkpt>
      <trkpt lat="47.32493" lon="-0.55868">
        <ele>79</ele>
        <time>2021-05-12T21:10:41Z</time>
      </trkpt>
      <trkpt lat="47.32497" lon="-0.55897">
        <ele>78.4</ele>
        <time>2021-05-12T21:10:45Z</time>
      </trkpt>
      <trkpt lat="47.32486" lon="-0.55993">
        <ele>76.2</ele>
        <time>2021-05-12T21:10:58Z</time>
      </trkpt>
      <trkpt lat="47.32449" lon="-0.56057">
        <ele>77.4</ele>
        <time>2021-05-12T21:11:09Z</time>
      </trkpt>
      <trkpt lat="47.32443" lon="-0.56113">
        <ele>77.4</ele>
        <time>2021-05-12T21:11:17Z</time>
      </trkpt>
      <trkpt lat="47.32441" lon="-0.56161">
        <ele>77.4</ele>
        <time>2021-05-12T21:11:24Z</time>
      </trkpt>
      <trkpt lat="47.32423" lon="-0.56252">
        <ele>78.2</ele>
        <time>2021-05-12T21:11:37Z</time>
      </trkpt>
      <trkpt lat="47.32402" lon="-0.56339">
        <ele>79</ele>
        <time>2021-05-12T21:11:49Z</time>
      </trkpt>
      <trkpt lat="47.32429" lon="-0.56411">
        <ele>79.6</ele>
        <time>2021-05-12T21:12:00Z</time>
      </trkpt>
      <trkpt lat="47.32438" lon="-0.56506">
        <ele>81</ele>
        <time>2021-05-12T21:12:13Z</time>
      </trkpt>
      <trkpt lat="47.32418" lon="-0.56583">
        <ele>80.8</ele>
        <time>2021-05-12T21:12:24Z</time>
      </trkpt>
      <trkpt lat="47.32412" lon="-0.56597">
        <ele>80.6</ele>
        <time>2021-05-12T21:12:27Z</time>
      </trkpt>
      <trkpt lat="47.32398" lon="-0.56641">
        <ele>79.6</ele>
        <time>2021-05-12T21:12:33Z</time>
      </trkpt>
      <trkpt lat="47.32397" lon="-0.56648">
        <ele>79.4</ele>
        <time>2021-05-12T21:12:34Z</time>
      </trkpt>
      <trkpt lat="47.32398" lon="-0.56665">
        <ele>78.8</ele>
        <time>2021-05-12T21:12:37Z</time>
      </trkpt>
      <trkpt lat="47.32404" lon="-0.56706">
        <ele>78.8</ele>
        <time>2021-05-12T21:12:42Z</time>
      </trkpt>
      <trkpt lat="47.32334" lon="-0.56718">
        <ele>80.4</ele>
        <time>2021-05-12T21:12:56Z</time>
      </trkpt>
      <trkpt lat="47.3232" lon="-0.56729">
        <ele>80.6</ele>
        <time>2021-05-12T21:12:59Z</time>
      </trkpt>
      <trkpt lat="47.32303" lon="-0.56748">
        <ele>80.6</ele>
        <time>2021-05-12T21:13:04Z</time>
      </trkpt>
      <trkpt lat="47.32289" lon="-0.56771">
        <ele>81</ele>
        <time>2021-05-12T21:13:08Z</time>
      </trkpt>
      <trkpt lat="47.32269" lon="-0.56883">
        <ele>84.6</ele>
        <time>2021-05-12T21:13:24Z</time>
      </trkpt>
      <trkpt lat="47.32258" lon="-0.56965">
        <ele>87.2</ele>
        <time>2021-05-12T21:13:35Z</time>
      </trkpt>
      <trkpt lat="47.32251" lon="-0.56962">
        <ele>87.2</ele>
        <time>2021-05-12T21:13:37Z</time>
      </trkpt>
      <trkpt lat="47.32246" lon="-0.56958">
        <ele>87</ele>
        <time>2021-05-12T21:13:38Z</time>
      </trkpt>
      <trkpt lat="47.32179" lon="-0.56919">
        <ele>86.6</ele>
        <time>2021-05-12T21:13:52Z</time>
      </trkpt>
      <trkpt lat="47.32123" lon="-0.56874">
        <ele>89.4</ele>
        <time>2021-05-12T21:14:05Z</time>
      </trkpt>
      <trkpt lat="47.321" lon="-0.56852">
        <ele>90.8</ele>
        <time>2021-05-12T21:14:11Z</time>
      </trkpt>
      <trkpt lat="47.32049" lon="-0.56797">
        <ele>93.2</ele>
        <time>2021-05-12T21:14:23Z</time>
      </trkpt>
      <trkpt lat="47.32048" lon="-0.56798">
        <ele>93.2</ele>
        <time>2021-05-12T21:14:24Z</time>
      </trkpt>
      <trkpt lat="47.32045" lon="-0.56804">
        <ele>93.2</ele>
        <time>2021-05-12T21:14:25Z</time>
      </trkpt>
      <trkpt lat="47.32036" lon="-0.56792">
        <ele>93.8</ele>
        <time>2021-05-12T21:14:27Z</time>
      </trkpt>
      <trkpt lat="47.32043" lon="-0.56795">
        <ele>93.4</ele>
        <time>2021-05-12T21:14:29Z</time>
      </trkpt>
      <trkpt lat="47.3204" lon="-0.56803">
        <ele>93.6</ele>
        <time>2021-05-12T21:14:30Z</time>
      </trkpt>
      <trkpt lat="47.32029" lon="-0.5687">
        <ele>93.6</ele>
        <time>2021-05-12T21:14:40Z</time>
      </trkpt>
      <trkpt lat="47.32023" lon="-0.56938">
        <ele>92.6</ele>
        <time>2021-05-12T21:14:49Z</time>
      </trkpt>
      <trkpt lat="47.32012" lon="-0.57025">
        <ele>91.8</ele>
        <time>2021-05-12T21:15:01Z</time>
      </trkpt>
      <trkpt lat="47.32007" lon="-0.57082">
        <ele>91</ele>
        <time>2021-05-12T21:15:09Z</time>
      </trkpt>
      <trkpt lat="47.31988" lon="-0.57162">
        <ele>90.8</ele>
        <time>2021-05-12T21:15:21Z</time>
      </trkpt>
      <trkpt lat="47.31976" lon="-0.57201">
        <ele>91.4</ele>
        <time>2021-05-12T21:15:26Z</time>
      </trkpt>
      <trkpt lat="47.31965" lon="-0.57229">
        <ele>92</ele>
        <time>2021-05-12T21:15:31Z</time>
      </trkpt>
      <trkpt lat="47.31917" lon="-0.57378">
        <ele>94.2</ele>
        <time>2021-05-12T21:15:53Z</time>
      </trkpt>
      <trkpt lat="47.3191" lon="-0.57407">
        <ele>94.6</ele>
        <time>2021-05-12T21:15:57Z</time>
      </trkpt>
      <trkpt lat="47.31884" lon="-0.57485">
        <ele>95.8</ele>
        <time>2021-05-12T21:16:09Z</time>
      </trkpt>
      <trkpt lat="47.3186" lon="-0.57562">
        <ele>97</ele>
        <time>2021-05-12T21:16:21Z</time>
      </trkpt>
      <trkpt lat="47.31834" lon="-0.57643">
        <ele>98</ele>
        <time>2021-05-12T21:16:33Z</time>
      </trkpt>
      <trkpt lat="47.31804" lon="-0.57719">
        <ele>98.6</ele>
        <time>2021-05-12T21:16:45Z</time>
      </trkpt>
      <trkpt lat="47.31793" lon="-0.57753">
        <ele>99</ele>
        <time>2021-05-12T21:16:50Z</time>
      </trkpt>
      <trkpt lat="47.31773" lon="-0.57834">
        <ele>99.2</ele>
        <time>2021-05-12T21:17:02Z</time>
      </trkpt>
      <trkpt lat="47.31768" lon="-0.57919">
        <ele>100.6</ele>
        <time>2021-05-12T21:17:13Z</time>
      </trkpt>
      <trkpt lat="47.3176" lon="-0.58003">
        <ele>101.8</ele>
        <time>2021-05-12T21:17:25Z</time>
      </trkpt>
      <trkpt lat="47.31754" lon="-0.58037">
        <ele>102</ele>
        <time>2021-05-12T21:17:30Z</time>
      </trkpt>
      <trkpt lat="47.31749" lon="-0.58048">
        <ele>102</ele>
        <time>2021-05-12T21:17:31Z</time>
      </trkpt>
      <trkpt lat="47.31686" lon="-0.58111">
        <ele>102</ele>
        <time>2021-05-12T21:17:47Z</time>
      </trkpt>
      <trkpt lat="47.31639" lon="-0.58161">
        <ele>103</ele>
        <time>2021-05-12T21:17:58Z</time>
      </trkpt>
      <trkpt lat="47.31592" lon="-0.58214">
        <ele>103</ele>
        <time>2021-05-12T21:18:10Z</time>
      </trkpt>
      <trkpt lat="47.31582" lon="-0.58228">
        <ele>103</ele>
        <time>2021-05-12T21:18:13Z</time>
      </trkpt>
      <trkpt lat="47.31577" lon="-0.58239">
        <ele>103</ele>
        <time>2021-05-12T21:18:15Z</time>
      </trkpt>
      <trkpt lat="47.31574" lon="-0.58252">
        <ele>103</ele>
        <time>2021-05-12T21:18:16Z</time>
      </trkpt>
      <trkpt lat="47.31574" lon="-0.58259">
        <ele>103</ele>
        <time>2021-05-12T21:18:17Z</time>
      </trkpt>
      <trkpt lat="47.31575" lon="-0.58273">
        <ele>103</ele>
        <time>2021-05-12T21:18:19Z</time>
      </trkpt>
      <trkpt lat="47.31581" lon="-0.58299">
        <ele>103</ele>
        <time>2021-05-12T21:18:23Z</time>
      </trkpt>
      <trkpt lat="47.31586" lon="-0.58335">
        <ele>103</ele>
        <time>2021-05-12T21:18:28Z</time>
      </trkpt>
      <trkpt lat="47.31587" lon="-0.58357">
        <ele>103</ele>
        <time>2021-05-12T21:18:31Z</time>
      </trkpt>
      <trkpt lat="47.31583" lon="-0.58378">
        <ele>103</ele>
        <time>2021-05-12T21:18:34Z</time>
      </trkpt>
      <trkpt lat="47.31579" lon="-0.5839">
        <ele>102.8</ele>
        <time>2021-05-12T21:18:36Z</time>
      </trkpt>
      <trkpt lat="47.31576" lon="-0.58394">
        <ele>102.8</ele>
        <time>2021-05-12T21:18:37Z</time>
      </trkpt>
      <trkpt lat="47.31563" lon="-0.5841">
        <ele>102.6</ele>
        <time>2021-05-12T21:18:40Z</time>
      </trkpt>
      <trkpt lat="47.3155" lon="-0.58429">
        <ele>102.2</ele>
        <time>2021-05-12T21:18:44Z</time>
      </trkpt>
      <trkpt lat="47.31523" lon="-0.58469">
        <ele>101.6</ele>
        <time>2021-05-12T21:18:51Z</time>
      </trkpt>
      <trkpt lat="47.31511" lon="-0.5849">
        <ele>101.2</ele>
        <time>2021-05-12T21:18:55Z</time>
      </trkpt>
      <trkpt lat="47.31508" lon="-0.58493">
        <ele>101</ele>
        <time>2021-05-12T21:18:56Z</time>
      </trkpt>
      <trkpt lat="47.31501" lon="-0.58492">
        <ele>100.8</ele>
        <time>2021-05-12T21:18:57Z</time>
      </trkpt>
      <trkpt lat="47.31499" lon="-0.58489">
        <ele>100.8</ele>
        <time>2021-05-12T21:18:58Z</time>
      </trkpt>
      <trkpt lat="47.31497" lon="-0.58485">
        <ele>100.8</ele>
        <time>2021-05-12T21:18:59Z</time>
      </trkpt>
      <trkpt lat="47.31476" lon="-0.58423">
        <ele>101.4</ele>
        <time>2021-05-12T21:19:08Z</time>
      </trkpt>
      <trkpt lat="47.31466" lon="-0.58391">
        <ele>101.4</ele>
        <time>2021-05-12T21:19:13Z</time>
      </trkpt>
      <trkpt lat="47.31444" lon="-0.58308">
        <ele>100.8</ele>
        <time>2021-05-12T21:19:25Z</time>
      </trkpt>
      <trkpt lat="47.31393" lon="-0.5814">
        <ele>100.6</ele>
        <time>2021-05-12T21:19:50Z</time>
      </trkpt>
      <trkpt lat="47.31367" lon="-0.58059">
        <ele>101</ele>
        <time>2021-05-12T21:20:02Z</time>
      </trkpt>
      <trkpt lat="47.31345" lon="-0.57982">
        <ele>101.6</ele>
        <time>2021-05-12T21:20:13Z</time>
      </trkpt>
      <trkpt lat="47.31324" lon="-0.57898">
        <ele>102</ele>
        <time>2021-05-12T21:20:26Z</time>
      </trkpt>
      <trkpt lat="47.31319" lon="-0.5781">
        <ele>101.8</ele>
        <time>2021-05-12T21:20:38Z</time>
      </trkpt>
      <trkpt lat="47.3132" lon="-0.57772">
        <ele>101.4</ele>
        <time>2021-05-12T21:20:43Z</time>
      </trkpt>
      <trkpt lat="47.31342" lon="-0.57604">
        <ele>101</ele>
        <time>2021-05-12T21:21:06Z</time>
      </trkpt>
      <trkpt lat="47.31341" lon="-0.57521">
        <ele>101</ele>
        <time>2021-05-12T21:21:17Z</time>
      </trkpt>
      <trkpt lat="47.31323" lon="-0.57438">
        <ele>101</ele>
        <time>2021-05-12T21:21:29Z</time>
      </trkpt>
      <trkpt lat="47.31312" lon="-0.57373">
        <ele>101</ele>
        <time>2021-05-12T21:21:38Z</time>
      </trkpt>
      <trkpt lat="47.31308" lon="-0.57361">
        <ele>101</ele>
        <time>2021-05-12T21:21:40Z</time>
      </trkpt>
      <trkpt lat="47.31302" lon="-0.57351">
        <ele>101</ele>
        <time>2021-05-12T21:21:42Z</time>
      </trkpt>
      <trkpt lat="47.31283" lon="-0.57326">
        <ele>101</ele>
        <time>2021-05-12T21:21:47Z</time>
      </trkpt>
      <trkpt lat="47.31268" lon="-0.57324">
        <ele>101</ele>
        <time>2021-05-12T21:21:50Z</time>
      </trkpt>
      <trkpt lat="47.3126" lon="-0.57327">
        <ele>101</ele>
        <time>2021-05-12T21:21:52Z</time>
      </trkpt>
      <trkpt lat="47.31252" lon="-0.57329">
        <ele>101</ele>
        <time>2021-05-12T21:21:54Z</time>
      </trkpt>
      <trkpt lat="47.31235" lon="-0.57326">
        <ele>100.6</ele>
        <time>2021-05-12T21:21:57Z</time>
      </trkpt>
      <trkpt lat="47.31165" lon="-0.57343">
        <ele>99</ele>
        <time>2021-05-12T21:22:11Z</time>
      </trkpt>
      <trkpt lat="47.31162" lon="-0.5734">
        <ele>99</ele>
        <time>2021-05-12T21:22:12Z</time>
      </trkpt>
      <trkpt lat="47.31162" lon="-0.57335">
        <ele>99</ele>
        <time>2021-05-12T21:22:13Z</time>
      </trkpt>
      <trkpt lat="47.31163" lon="-0.57308">
        <ele>99</ele>
        <time>2021-05-12T21:22:16Z</time>
      </trkpt>
      <trkpt lat="47.3116" lon="-0.57285">
        <ele>99</ele>
        <time>2021-05-12T21:22:19Z</time>
      </trkpt>
      <trkpt lat="47.31158" lon="-0.57281">
        <ele>99</ele>
        <time>2021-05-12T21:22:20Z</time>
      </trkpt>
      <trkpt lat="47.31155" lon="-0.57278">
        <ele>98.8</ele>
        <time>2021-05-12T21:22:21Z</time>
      </trkpt>
      <trkpt lat="47.31152" lon="-0.57278">
        <ele>98.8</ele>
        <time>2021-05-12T21:22:22Z</time>
      </trkpt>
      <trkpt lat="47.3114" lon="-0.5728">
        <ele>98.4</ele>
        <time>2021-05-12T21:22:24Z</time>
      </trkpt>
      <trkpt lat="47.31109" lon="-0.57288">
        <ele>97</ele>
        <time>2021-05-12T21:22:30Z</time>
      </trkpt>
      <trkpt lat="47.31082" lon="-0.57298">
        <ele>95.4</ele>
        <time>2021-05-12T21:22:36Z</time>
      </trkpt>
      <trkpt lat="47.31063" lon="-0.57303">
        <ele>94</ele>
        <time>2021-05-12T21:22:40Z</time>
      </trkpt>
      <trkpt lat="47.31043" lon="-0.5731">
        <ele>92.4</ele>
        <time>2021-05-12T21:22:44Z</time>
      </trkpt>
      <trkpt lat="47.31039" lon="-0.57314">
        <ele>92</ele>
        <time>2021-05-12T21:22:45Z</time>
      </trkpt>
      <trkpt lat="47.31036" lon="-0.5732">
        <ele>91.6</ele>
        <time>2021-05-12T21:22:46Z</time>
      </trkpt>
      <trkpt lat="47.31035" lon="-0.57327">
        <ele>91.6</ele>
        <time>2021-05-12T21:22:47Z</time>
      </trkpt>
      <trkpt lat="47.31036" lon="-0.5734">
        <ele>91.6</ele>
        <time>2021-05-12T21:22:49Z</time>
      </trkpt>
      <trkpt lat="47.3104" lon="-0.57355">
        <ele>91.6</ele>
        <time>2021-05-12T21:22:51Z</time>
      </trkpt>
      <trkpt lat="47.31029" lon="-0.57282">
        <ele>92.2</ele>
        <time>2021-05-12T21:23:01Z</time>
      </trkpt>
      <trkpt lat="47.31013" lon="-0.57205">
        <ele>92.4</ele>
        <time>2021-05-12T21:23:12Z</time>
      </trkpt>
      <trkpt lat="47.31007" lon="-0.5717">
        <ele>92.6</ele>
        <time>2021-05-12T21:23:17Z</time>
      </trkpt>
      <trkpt lat="47.31001" lon="-0.57144">
        <ele>93</ele>
        <time>2021-05-12T21:23:20Z</time>
      </trkpt>
      <trkpt lat="47.30996" lon="-0.57134">
        <ele>93</ele>
        <time>2021-05-12T21:23:22Z</time>
      </trkpt>
      <trkpt lat="47.30993" lon="-0.5713">
        <ele>93</ele>
        <time>2021-05-12T21:23:23Z</time>
      </trkpt>
      <trkpt lat="47.30988" lon="-0.57128">
        <ele>92.8</ele>
        <time>2021-05-12T21:23:24Z</time>
      </trkpt>
      <trkpt lat="47.30983" lon="-0.57127">
        <ele>92.4</ele>
        <time>2021-05-12T21:23:25Z</time>
      </trkpt>
      <trkpt lat="47.30978" lon="-0.57129">
        <ele>91.6</ele>
        <time>2021-05-12T21:23:26Z</time>
      </trkpt>
      <trkpt lat="47.30933" lon="-0.57151">
        <ele>86.8</ele>
        <time>2021-05-12T21:23:35Z</time>
      </trkpt>
      <trkpt lat="47.3078" lon="-0.57236">
        <ele>74.6</ele>
        <time>2021-05-12T21:24:08Z</time>
      </trkpt>
      <trkpt lat="47.3074" lon="-0.57263">
        <ele>71.4</ele>
        <time>2021-05-12T21:24:17Z</time>
      </trkpt>
      <trkpt lat="47.30698" lon="-0.57282">
        <ele>69</ele>
        <time>2021-05-12T21:24:26Z</time>
      </trkpt>
      <trkpt lat="47.30672" lon="-0.57288">
        <ele>68.2</ele>
        <time>2021-05-12T21:24:31Z</time>
      </trkpt>
      <trkpt lat="47.30667" lon="-0.57288">
        <ele>68.2</ele>
        <time>2021-05-12T21:24:32Z</time>
      </trkpt>
      <trkpt lat="47.30631" lon="-0.57312">
        <ele>68.8</ele>
        <time>2021-05-12T21:24:40Z</time>
      </trkpt>
      <trkpt lat="47.30593" lon="-0.57323">
        <ele>71.2</ele>
        <time>2021-05-12T21:24:48Z</time>
      </trkpt>
      <trkpt lat="47.30555" lon="-0.5734">
        <ele>73.6</ele>
        <time>2021-05-12T21:24:56Z</time>
      </trkpt>
      <trkpt lat="47.30529" lon="-0.57354">
        <ele>75</ele>
        <time>2021-05-12T21:25:01Z</time>
      </trkpt>
      <trkpt lat="47.30478" lon="-0.57379">
        <ele>77</ele>
        <time>2021-05-12T21:25:12Z</time>
      </trkpt>
      <trkpt lat="47.30426" lon="-0.57416">
        <ele>79.6</ele>
        <time>2021-05-12T21:25:24Z</time>
      </trkpt>
      <trkpt lat="47.30385" lon="-0.57471">
        <ele>81.2</ele>
        <time>2021-05-12T21:25:35Z</time>
      </trkpt>
      <trkpt lat="47.30356" lon="-0.57515">
        <ele>81.2</ele>
        <time>2021-05-12T21:25:43Z</time>
      </trkpt>
      <trkpt lat="47.30341" lon="-0.57529">
        <ele>81</ele>
        <time>2021-05-12T21:25:47Z</time>
      </trkpt>
      <trkpt lat="47.30322" lon="-0.57539">
        <ele>80.2</ele>
        <time>2021-05-12T21:25:51Z</time>
      </trkpt>
      <trkpt lat="47.30295" lon="-0.57549">
        <ele>78.6</ele>
        <time>2021-05-12T21:25:56Z</time>
      </trkpt>
      <trkpt lat="47.30269" lon="-0.57557">
        <ele>76.8</ele>
        <time>2021-05-12T21:26:02Z</time>
      </trkpt>
      <trkpt lat="47.30258" lon="-0.57562">
        <ele>76.2</ele>
        <time>2021-05-12T21:26:04Z</time>
      </trkpt>
      <trkpt lat="47.30241" lon="-0.57574">
        <ele>75</ele>
        <time>2021-05-12T21:26:08Z</time>
      </trkpt>
      <trkpt lat="47.30225" lon="-0.57587">
        <ele>73.6</ele>
        <time>2021-05-12T21:26:11Z</time>
      </trkpt>
      <trkpt lat="47.30196" lon="-0.57609">
        <ele>71</ele>
        <time>2021-05-12T21:26:18Z</time>
      </trkpt>
      <trkpt lat="47.30131" lon="-0.57665">
        <ele>64</ele>
        <time>2021-05-12T21:26:33Z</time>
      </trkpt>
      <trkpt lat="47.30109" lon="-0.57683">
        <ele>61.8</ele>
        <time>2021-05-12T21:26:38Z</time>
      </trkpt>
      <trkpt lat="47.30086" lon="-0.57698">
        <ele>60</ele>
        <time>2021-05-12T21:26:43Z</time>
      </trkpt>
      <trkpt lat="47.30041" lon="-0.57722">
        <ele>55.6</ele>
        <time>2021-05-12T21:26:52Z</time>
      </trkpt>
      <trkpt lat="47.30012" lon="-0.57732">
        <ele>52.8</ele>
        <time>2021-05-12T21:26:58Z</time>
      </trkpt>
      <trkpt lat="47.30004" lon="-0.5773">
        <ele>52.2</ele>
        <time>2021-05-12T21:27:00Z</time>
      </trkpt>
      <trkpt lat="47.30003" lon="-0.57728">
        <ele>52</ele>
        <time>2021-05-12T21:27:01Z</time>
      </trkpt>
      <trkpt lat="47.29992" lon="-0.57722">
        <ele>51.2</ele>
        <time>2021-05-12T21:27:03Z</time>
      </trkpt>
      <trkpt lat="47.29986" lon="-0.57721">
        <ele>50.6</ele>
        <time>2021-05-12T21:27:04Z</time>
      </trkpt>
      <trkpt lat="47.29981" lon="-0.5772">
        <ele>50.2</ele>
        <time>2021-05-12T21:27:05Z</time>
      </trkpt>
      <trkpt lat="47.29967" lon="-0.57721">
        <ele>47.8</ele>
        <time>2021-05-12T21:27:08Z</time>
      </trkpt>
      <trkpt lat="47.2995" lon="-0.57729">
        <ele>44.6</ele>
        <time>2021-05-12T21:27:11Z</time>
      </trkpt>
      <trkpt lat="47.29925" lon="-0.57737">
        <ele>40.2</ele>
        <time>2021-05-12T21:27:17Z</time>
      </trkpt>
      <trkpt lat="47.29917" lon="-0.57735">
        <ele>38.8</ele>
        <time>2021-05-12T21:27:18Z</time>
      </trkpt>
      <trkpt lat="47.2991" lon="-0.5773">
        <ele>37.8</ele>
        <time>2021-05-12T21:27:20Z</time>
      </trkpt>
      <trkpt lat="47.2991" lon="-0.57753">
        <ele>37</ele>
        <time>2021-05-12T21:27:23Z</time>
      </trkpt>
      <trkpt lat="47.29903" lon="-0.57829">
        <ele>33</ele>
        <time>2021-05-12T21:27:33Z</time>
      </trkpt>
      <trkpt lat="47.29903" lon="-0.57838">
        <ele>32.8</ele>
        <time>2021-05-12T21:27:35Z</time>
      </trkpt>
      <trkpt lat="47.29905" lon="-0.57847">
        <ele>32.8</ele>
        <time>2021-05-12T21:27:36Z</time>
      </trkpt>
      <trkpt lat="47.29915" lon="-0.57874">
        <ele>32.6</ele>
        <time>2021-05-12T21:27:40Z</time>
      </trkpt>
      <trkpt lat="47.29921" lon="-0.579">
        <ele>31</ele>
        <time>2021-05-12T21:27:44Z</time>
      </trkpt>
      <trkpt lat="47.29921" lon="-0.57908">
        <ele>30.2</ele>
        <time>2021-05-12T21:27:45Z</time>
      </trkpt>
      <trkpt lat="47.2992" lon="-0.57916">
        <ele>29.2</ele>
        <time>2021-05-12T21:27:46Z</time>
      </trkpt>
      <trkpt lat="47.29912" lon="-0.57926">
        <ele>27.8</ele>
        <time>2021-05-12T21:27:48Z</time>
      </trkpt>
      <trkpt lat="47.29909" lon="-0.57928">
        <ele>27.2</ele>
        <time>2021-05-12T21:27:49Z</time>
      </trkpt>
      <trkpt lat="47.29904" lon="-0.57929">
        <ele>26.8</ele>
        <time>2021-05-12T21:27:50Z</time>
      </trkpt>
      <trkpt lat="47.29898" lon="-0.57918">
        <ele>26.4</ele>
        <time>2021-05-12T21:27:52Z</time>
      </trkpt>
      <trkpt lat="47.29894" lon="-0.57905">
        <ele>27</ele>
        <time>2021-05-12T21:27:54Z</time>
      </trkpt>
      <trkpt lat="47.29887" lon="-0.57864">
        <ele>28.2</ele>
        <time>2021-05-12T21:27:59Z</time>
      </trkpt>
      <trkpt lat="47.29879" lon="-0.57786">
        <ele>30.2</ele>
        <time>2021-05-12T21:28:10Z</time>
      </trkpt>
      <trkpt lat="47.29872" lon="-0.57763">
        <ele>29.6</ele>
        <time>2021-05-12T21:28:14Z</time>
      </trkpt>
      <trkpt lat="47.29869" lon="-0.57736">
        <ele>29.8</ele>
        <time>2021-05-12T21:28:17Z</time>
      </trkpt>
      <trkpt lat="47.29863" lon="-0.57636">
        <ele>29.8</ele>
        <time>2021-05-12T21:28:31Z</time>
      </trkpt>
      <trkpt lat="47.29861" lon="-0.57612">
        <ele>29.8</ele>
        <time>2021-05-12T21:28:34Z</time>
      </trkpt>
      <trkpt lat="47.29859" lon="-0.57549">
        <ele>29.4</ele>
        <time>2021-05-12T21:28:43Z</time>
      </trkpt>
      <trkpt lat="47.29856" lon="-0.57501">
        <ele>28.6</ele>
        <time>2021-05-12T21:28:49Z</time>
      </trkpt>
      <trkpt lat="47.29842" lon="-0.57348">
        <ele>28.4</ele>
        <time>2021-05-12T21:29:10Z</time>
      </trkpt>
      <trkpt lat="47.29837" lon="-0.57295">
        <ele>28.6</ele>
        <time>2021-05-12T21:29:18Z</time>
      </trkpt>
      <trkpt lat="47.29817" lon="-0.57192">
        <ele>27.2</ele>
        <time>2021-05-12T21:29:32Z</time>
      </trkpt>
      <trkpt lat="47.29806" lon="-0.57146">
        <ele>27</ele>
        <time>2021-05-12T21:29:39Z</time>
      </trkpt>
      <trkpt lat="47.2977" lon="-0.56979">
        <ele>25.8</ele>
        <time>2021-05-12T21:30:03Z</time>
      </trkpt>
      <trkpt lat="47.29753" lon="-0.56896">
        <ele>26.4</ele>
        <time>2021-05-12T21:30:15Z</time>
      </trkpt>
      <trkpt lat="47.29718" lon="-0.56727">
        <ele>26.2</ele>
        <time>2021-05-12T21:30:39Z</time>
      </trkpt>
      <trkpt lat="47.29699" lon="-0.56644">
        <ele>26.8</ele>
        <time>2021-05-12T21:30:51Z</time>
      </trkpt>
      <trkpt lat="47.29665" lon="-0.56476">
        <ele>27</ele>
        <time>2021-05-12T21:31:14Z</time>
      </trkpt>
      <trkpt lat="47.29642" lon="-0.56378">
        <ele>28.6</ele>
        <time>2021-05-12T21:31:29Z</time>
      </trkpt>
      <trkpt lat="47.29623" lon="-0.56294">
        <ele>29.6</ele>
        <time>2021-05-12T21:31:41Z</time>
      </trkpt>
      <trkpt lat="47.29618" lon="-0.56264">
        <ele>29.2</ele>
        <time>2021-05-12T21:31:45Z</time>
      </trkpt>
      <trkpt lat="47.29598" lon="-0.56178">
        <ele>29.4</ele>
        <time>2021-05-12T21:31:57Z</time>
      </trkpt>
      <trkpt lat="47.29576" lon="-0.56094">
        <ele>31</ele>
        <time>2021-05-12T21:32:09Z</time>
      </trkpt>
      <trkpt lat="47.29535" lon="-0.55954">
        <ele>32.8</ele>
        <time>2021-05-12T21:32:30Z</time>
      </trkpt>
      <trkpt lat="47.29486" lon="-0.55802">
        <ele>34.6</ele>
        <time>2021-05-12T21:32:53Z</time>
      </trkpt>
      <trkpt lat="47.29455" lon="-0.55725">
        <ele>28</ele>
        <time>2021-05-12T21:33:05Z</time>
      </trkpt>
      <trkpt lat="47.29437" lon="-0.55665">
        <ele>30</ele>
        <time>2021-05-12T21:33:15Z</time>
      </trkpt>
      <trkpt lat="47.29462" lon="-0.55646">
        <ele>32.4</ele>
        <time>2021-05-12T21:33:21Z</time>
      </trkpt>
      <trkpt lat="47.29477" lon="-0.55624">
        <ele>36.6</ele>
        <time>2021-05-12T21:33:25Z</time>
      </trkpt>
      <trkpt lat="47.29537" lon="-0.55594">
        <ele>35.8</ele>
        <time>2021-05-12T21:33:38Z</time>
      </trkpt>
      <trkpt lat="47.29567" lon="-0.55582">
        <ele>34.8</ele>
        <time>2021-05-12T21:33:44Z</time>
      </trkpt>
      <trkpt lat="47.29586" lon="-0.55566">
        <ele>37.4</ele>
        <time>2021-05-12T21:33:49Z</time>
      </trkpt>
      <trkpt lat="47.29637" lon="-0.55515">
        <ele>42.8</ele>
        <time>2021-05-12T21:34:01Z</time>
      </trkpt>
      <trkpt lat="47.29641" lon="-0.55515">
        <ele>43</ele>
        <time>2021-05-12T21:34:02Z</time>
      </trkpt>
      <trkpt lat="47.29668" lon="-0.55445">
        <ele>47.8</ele>
        <time>2021-05-12T21:34:13Z</time>
      </trkpt>
      <trkpt lat="47.29665" lon="-0.55425">
        <ele>51</ele>
        <time>2021-05-12T21:34:15Z</time>
      </trkpt>
      <trkpt lat="47.29669" lon="-0.55413">
        <ele>51</ele>
        <time>2021-05-12T21:34:17Z</time>
      </trkpt>
      <trkpt lat="47.29665" lon="-0.55402">
        <ele>53.6</ele>
        <time>2021-05-12T21:34:19Z</time>
      </trkpt>
      <trkpt lat="47.29661" lon="-0.55386">
        <ele>57.4</ele>
        <time>2021-05-12T21:34:21Z</time>
      </trkpt>
      <trkpt lat="47.29657" lon="-0.55378">
        <ele>60</ele>
        <time>2021-05-12T21:34:23Z</time>
      </trkpt>
      <trkpt lat="47.29665" lon="-0.55375">
        <ele>58</ele>
        <time>2021-05-12T21:34:24Z</time>
      </trkpt>
      <trkpt lat="47.29664" lon="-0.55374">
        <ele>58.6</ele>
        <time>2021-05-12T21:34:25Z</time>
      </trkpt>
      <trkpt lat="47.2966" lon="-0.55373">
        <ele>59.8</ele>
        <time>2021-05-12T21:34:26Z</time>
      </trkpt>
      <trkpt lat="47.29648" lon="-0.5538">
        <ele>62.6</ele>
        <time>2021-05-12T21:34:28Z</time>
      </trkpt>
      <trkpt lat="47.29643" lon="-0.55381">
        <ele>64</ele>
        <time>2021-05-12T21:34:29Z</time>
      </trkpt>
      <trkpt lat="47.29634" lon="-0.55389">
        <ele>66.2</ele>
        <time>2021-05-12T21:34:31Z</time>
      </trkpt>
      <trkpt lat="47.29628" lon="-0.55389">
        <ele>67</ele>
        <time>2021-05-12T21:34:32Z</time>
      </trkpt>
      <trkpt lat="47.29622" lon="-0.55387">
        <ele>68.2</ele>
        <time>2021-05-12T21:34:34Z</time>
      </trkpt>
      <trkpt lat="47.29615" lon="-0.5538">
        <ele>69.6</ele>
        <time>2021-05-12T21:34:35Z</time>
      </trkpt>
      <trkpt lat="47.29607" lon="-0.55361">
        <ele>72.2</ele>
        <time>2021-05-12T21:34:38Z</time>
      </trkpt>
      <trkpt lat="47.29589" lon="-0.55314">
        <ele>76.2</ele>
        <time>2021-05-12T21:34:46Z</time>
      </trkpt>
      <trkpt lat="47.2956" lon="-0.55261">
        <ele>78.4</ele>
        <time>2021-05-12T21:34:55Z</time>
      </trkpt>
      <trkpt lat="47.29538" lon="-0.55208">
        <ele>79</ele>
        <time>2021-05-12T21:35:04Z</time>
      </trkpt>
      <trkpt lat="47.29481" lon="-0.55084">
        <ele>78.2</ele>
        <time>2021-05-12T21:35:24Z</time>
      </trkpt>
      <trkpt lat="47.29472" lon="-0.55064">
        <ele>77.6</ele>
        <time>2021-05-12T21:35:27Z</time>
      </trkpt>
      <trkpt lat="47.29473" lon="-0.55059">
        <ele>77.4</ele>
        <time>2021-05-12T21:35:28Z</time>
      </trkpt>
      <trkpt lat="47.29476" lon="-0.5505">
        <ele>77.2</ele>
        <time>2021-05-12T21:35:29Z</time>
      </trkpt>
      <trkpt lat="47.29481" lon="-0.55041">
        <ele>77</ele>
        <time>2021-05-12T21:35:31Z</time>
      </trkpt>
      <trkpt lat="47.29508" lon="-0.55011">
        <ele>76.8</ele>
        <time>2021-05-12T21:35:38Z</time>
      </trkpt>
      <trkpt lat="47.29519" lon="-0.54996">
        <ele>76.4</ele>
        <time>2021-05-12T21:35:41Z</time>
      </trkpt>
      <trkpt lat="47.29546" lon="-0.54967">
        <ele>76.2</ele>
        <time>2021-05-12T21:35:47Z</time>
      </trkpt>
      <trkpt lat="47.29594" lon="-0.54911">
        <ele>74.6</ele>
        <time>2021-05-12T21:35:59Z</time>
      </trkpt>
      <trkpt lat="47.29653" lon="-0.54835">
        <ele>75.2</ele>
        <time>2021-05-12T21:36:15Z</time>
      </trkpt>
      <trkpt lat="47.29658" lon="-0.54825">
        <ele>75.4</ele>
        <time>2021-05-12T21:36:17Z</time>
      </trkpt>
      <trkpt lat="47.29659" lon="-0.54819">
        <ele>75.4</ele>
        <time>2021-05-12T21:36:18Z</time>
      </trkpt>
      <trkpt lat="47.29657" lon="-0.54807">
        <ele>75.4</ele>
        <time>2021-05-12T21:36:19Z</time>
      </trkpt>
      <trkpt lat="47.2965" lon="-0.5479">
        <ele>75.2</ele>
        <time>2021-05-12T21:36:22Z</time>
      </trkpt>
      <trkpt lat="47.29637" lon="-0.54749">
        <ele>75.2</ele>
        <time>2021-05-12T21:36:28Z</time>
      </trkpt>
      <trkpt lat="47.29638" lon="-0.5475">
        <ele>75.2</ele>
        <time>2021-05-12T21:36:29Z</time>
      </trkpt>
      <trkpt lat="47.29652" lon="-0.54799">
        <ele>75.2</ele>
        <time>2021-05-12T21:36:36Z</time>
      </trkpt>
      <trkpt lat="47.29665" lon="-0.54833">
        <ele>75.8</ele>
        <time>2021-05-12T21:36:41Z</time>
      </trkpt>
      <trkpt lat="47.29668" lon="-0.54833">
        <ele>75.8</ele>
        <time>2021-05-12T21:36:42Z</time>
      </trkpt>
      <trkpt lat="47.29694" lon="-0.54818">
        <ele>77</ele>
        <time>2021-05-12T21:36:47Z</time>
      </trkpt>
      <trkpt lat="47.29708" lon="-0.54813">
        <ele>78</ele>
        <time>2021-05-12T21:36:50Z</time>
      </trkpt>
      <trkpt lat="47.29725" lon="-0.54814">
        <ele>79</ele>
        <time>2021-05-12T21:36:54Z</time>
      </trkpt>
      <trkpt lat="47.29759" lon="-0.54877">
        <ele>79.8</ele>
        <time>2021-05-12T21:37:05Z</time>
      </trkpt>
      <trkpt lat="47.29776" lon="-0.5491">
        <ele>79</ele>
        <time>2021-05-12T21:37:10Z</time>
      </trkpt>
      <trkpt lat="47.2978" lon="-0.54911">
        <ele>79.2</ele>
        <time>2021-05-12T21:37:11Z</time>
      </trkpt>
      <trkpt lat="47.29784" lon="-0.5491">
        <ele>79.2</ele>
        <time>2021-05-12T21:37:12Z</time>
      </trkpt>
      <trkpt lat="47.29787" lon="-0.54907">
        <ele>79.4</ele>
        <time>2021-05-12T21:37:13Z</time>
      </trkpt>
      <trkpt lat="47.29795" lon="-0.54895">
        <ele>79.8</ele>
        <time>2021-05-12T21:37:15Z</time>
      </trkpt>
      <trkpt lat="47.29799" lon="-0.54887">
        <ele>80.2</ele>
        <time>2021-05-12T21:37:16Z</time>
      </trkpt>
      <trkpt lat="47.29803" lon="-0.54873">
        <ele>80.8</ele>
        <time>2021-05-12T21:37:18Z</time>
      </trkpt>
      <trkpt lat="47.29825" lon="-0.54757">
        <ele>84.2</ele>
        <time>2021-05-12T21:37:35Z</time>
      </trkpt>
      <trkpt lat="47.29837" lon="-0.54707">
        <ele>86.8</ele>
        <time>2021-05-12T21:37:42Z</time>
      </trkpt>
      <trkpt lat="47.29845" lon="-0.54662">
        <ele>89</ele>
        <time>2021-05-12T21:37:48Z</time>
      </trkpt>
      <trkpt lat="47.29847" lon="-0.54642">
        <ele>90</ele>
        <time>2021-05-12T21:37:51Z</time>
      </trkpt>
      <trkpt lat="47.29856" lon="-0.54619">
        <ele>91.2</ele>
        <time>2021-05-12T21:37:55Z</time>
      </trkpt>
      <trkpt lat="47.29858" lon="-0.5454">
        <ele>92.6</ele>
        <time>2021-05-12T21:38:05Z</time>
      </trkpt>
      <trkpt lat="47.29857" lon="-0.54479">
        <ele>92.4</ele>
        <time>2021-05-12T21:38:14Z</time>
      </trkpt>
      <trkpt lat="47.29847" lon="-0.54397">
        <ele>91.6</ele>
        <time>2021-05-12T21:38:25Z</time>
      </trkpt>
      <trkpt lat="47.29837" lon="-0.54294">
        <ele>92.6</ele>
        <time>2021-05-12T21:38:39Z</time>
      </trkpt>
      <trkpt lat="47.29839" lon="-0.54291">
        <ele>92.8</ele>
        <time>2021-05-12T21:38:40Z</time>
      </trkpt>
      <trkpt lat="47.29896" lon="-0.54259">
        <ele>94.8</ele>
        <time>2021-05-12T21:38:52Z</time>
      </trkpt>
      <trkpt lat="47.29929" lon="-0.54236">
        <ele>95.6</ele>
        <time>2021-05-12T21:38:59Z</time>
      </trkpt>
      <trkpt lat="47.30043" lon="-0.5415">
        <ele>99</ele>
        <time>2021-05-12T21:39:25Z</time>
      </trkpt>
      <trkpt lat="47.30084" lon="-0.54121">
        <ele>99.6</ele>
        <time>2021-05-12T21:39:34Z</time>
      </trkpt>
      <trkpt lat="47.30088" lon="-0.54107">
        <ele>99.8</ele>
        <time>2021-05-12T21:39:36Z</time>
      </trkpt>
      <trkpt lat="47.30086" lon="-0.54097">
        <ele>100</ele>
        <time>2021-05-12T21:39:38Z</time>
      </trkpt>
      <trkpt lat="47.30072" lon="-0.54055">
        <ele>100</ele>
        <time>2021-05-12T21:39:44Z</time>
      </trkpt>
      <trkpt lat="47.30056" lon="-0.54002">
        <ele>99.2</ele>
        <time>2021-05-12T21:39:52Z</time>
      </trkpt>
      <trkpt lat="47.30054" lon="-0.53984">
        <ele>99</ele>
        <time>2021-05-12T21:39:54Z</time>
      </trkpt>
      <trkpt lat="47.30055" lon="-0.53979">
        <ele>98.8</ele>
        <time>2021-05-12T21:39:55Z</time>
      </trkpt>
      <trkpt lat="47.30057" lon="-0.53975">
        <ele>98.8</ele>
        <time>2021-05-12T21:39:56Z</time>
      </trkpt>
      <trkpt lat="47.30063" lon="-0.53971">
        <ele>99</ele>
        <time>2021-05-12T21:39:57Z</time>
      </trkpt>
      <trkpt lat="47.30131" lon="-0.53964">
        <ele>100.2</ele>
        <time>2021-05-12T21:40:11Z</time>
      </trkpt>
      <trkpt lat="47.3014" lon="-0.53964">
        <ele>100.4</ele>
        <time>2021-05-12T21:40:13Z</time>
      </trkpt>
      <trkpt lat="47.30171" lon="-0.53959">
        <ele>101</ele>
        <time>2021-05-12T21:40:19Z</time>
      </trkpt>
      <trkpt lat="47.30229" lon="-0.53947">
        <ele>101</ele>
        <time>2021-05-12T21:40:30Z</time>
      </trkpt>
      <trkpt lat="47.30287" lon="-0.53948">
        <ele>101</ele>
        <time>2021-05-12T21:40:42Z</time>
      </trkpt>
      <trkpt lat="47.30301" lon="-0.5395">
        <ele>101</ele>
        <time>2021-05-12T21:40:45Z</time>
      </trkpt>
      <trkpt lat="47.30357" lon="-0.53982">
        <ele>101</ele>
        <time>2021-05-12T21:40:57Z</time>
      </trkpt>
      <trkpt lat="47.30421" lon="-0.5402">
        <ele>101</ele>
        <time>2021-05-12T21:41:11Z</time>
      </trkpt>
      <trkpt lat="47.30478" lon="-0.54051">
        <ele>101</ele>
        <time>2021-05-12T21:41:23Z</time>
      </trkpt>
      <trkpt lat="47.30538" lon="-0.54058">
        <ele>101</ele>
        <time>2021-05-12T21:41:35Z</time>
      </trkpt>
      <trkpt lat="47.30578" lon="-0.54051">
        <ele>100.8</ele>
        <time>2021-05-12T21:41:43Z</time>
      </trkpt>
      <trkpt lat="47.30659" lon="-0.5402">
        <ele>100.6</ele>
        <time>2021-05-12T21:42:00Z</time>
      </trkpt>
      <trkpt lat="47.30668" lon="-0.54019">
        <ele>100.6</ele>
        <time>2021-05-12T21:42:02Z</time>
      </trkpt>
      <trkpt lat="47.30677" lon="-0.54022">
        <ele>100.8</ele>
        <time>2021-05-12T21:42:03Z</time>
      </trkpt>
      <trkpt lat="47.30794" lon="-0.54089">
        <ele>101.6</ele>
        <time>2021-05-12T21:42:28Z</time>
      </trkpt>
      <trkpt lat="47.3085" lon="-0.54118">
        <ele>101.4</ele>
        <time>2021-05-12T21:42:40Z</time>
      </trkpt>
      <trkpt lat="47.31075" lon="-0.54186">
        <ele>101.4</ele>
        <time>2021-05-12T21:43:26Z</time>
      </trkpt>
      <trkpt lat="47.31109" lon="-0.54199">
        <ele>101</ele>
        <time>2021-05-12T21:43:33Z</time>
      </trkpt>
      <trkpt lat="47.31168" lon="-0.54215">
        <ele>101</ele>
        <time>2021-05-12T21:43:45Z</time>
      </trkpt>
      <trkpt lat="47.31223" lon="-0.54234">
        <ele>101.2</ele>
        <time>2021-05-12T21:43:57Z</time>
      </trkpt>
      <trkpt lat="47.31279" lon="-0.54252">
        <ele>101.4</ele>
        <time>2021-05-12T21:44:08Z</time>
      </trkpt>
      <trkpt lat="47.31331" lon="-0.54267">
        <ele>101</ele>
        <time>2021-05-12T21:44:19Z</time>
      </trkpt>
      <trkpt lat="47.31341" lon="-0.54269">
        <ele>101</ele>
        <time>2021-05-12T21:44:21Z</time>
      </trkpt>
      <trkpt lat="47.31446" lon="-0.54311">
        <ele>99.4</ele>
        <time>2021-05-12T21:44:43Z</time>
      </trkpt>
      <trkpt lat="47.31506" lon="-0.54338">
        <ele>98.6</ele>
        <time>2021-05-12T21:44:55Z</time>
      </trkpt>
      <trkpt lat="47.31625" lon="-0.54383">
        <ele>94.8</ele>
        <time>2021-05-12T21:45:20Z</time>
      </trkpt>
      <trkpt lat="47.31684" lon="-0.54407">
        <ele>93.4</ele>
        <time>2021-05-12T21:45:32Z</time>
      </trkpt>
      <trkpt lat="47.31764" lon="-0.54434">
        <ele>90.2</ele>
        <time>2021-05-12T21:45:48Z</time>
      </trkpt>
      <trkpt lat="47.31885" lon="-0.54483">
        <ele>88.4</ele>
        <time>2021-05-12T21:46:13Z</time>
      </trkpt>
      <trkpt lat="47.31945" lon="-0.54509">
        <ele>88.2</ele>
        <time>2021-05-12T21:46:26Z</time>
      </trkpt>
      <trkpt lat="47.32059" lon="-0.54555">
        <ele>88.4</ele>
        <time>2021-05-12T21:46:50Z</time>
      </trkpt>
      <trkpt lat="47.32105" lon="-0.54557">
        <ele>88.4</ele>
        <time>2021-05-12T21:46:59Z</time>
      </trkpt>
      <trkpt lat="47.32107" lon="-0.54464">
        <ele>87</ele>
        <time>2021-05-12T21:47:12Z</time>
      </trkpt>
      <trkpt lat="47.32106" lon="-0.54443">
        <ele>86.6</ele>
        <time>2021-05-12T21:47:14Z</time>
      </trkpt>
      <trkpt lat="47.32112" lon="-0.54364">
        <ele>86.2</ele>
        <time>2021-05-12T21:47:25Z</time>
      </trkpt>
      <trkpt lat="47.32116" lon="-0.54344">
        <ele>86.4</ele>
        <time>2021-05-12T21:47:28Z</time>
      </trkpt>
      <trkpt lat="47.32118" lon="-0.54326">
        <ele>86.8</ele>
        <time>2021-05-12T21:47:31Z</time>
      </trkpt>
      <trkpt lat="47.32128" lon="-0.54275">
        <ele>88.8</ele>
        <time>2021-05-12T21:47:38Z</time>
      </trkpt>
      <trkpt lat="47.32132" lon="-0.54248">
        <ele>89.8</ele>
        <time>2021-05-12T21:47:42Z</time>
      </trkpt>
      <trkpt lat="47.32137" lon="-0.54217">
        <ele>90.6</ele>
        <time>2021-05-12T21:47:46Z</time>
      </trkpt>
      <trkpt lat="47.32141" lon="-0.54187">
        <ele>91</ele>
        <time>2021-05-12T21:47:50Z</time>
      </trkpt>
      <trkpt lat="47.32145" lon="-0.54141">
        <ele>90.8</ele>
        <time>2021-05-12T21:47:56Z</time>
      </trkpt>
      <trkpt lat="47.3215" lon="-0.53992">
        <ele>91.8</ele>
        <time>2021-05-12T21:48:17Z</time>
      </trkpt>
      <trkpt lat="47.32162" lon="-0.53908">
        <ele>92.4</ele>
        <time>2021-05-12T21:48:28Z</time>
      </trkpt>
      <trkpt lat="47.32174" lon="-0.53821">
        <ele>93</ele>
        <time>2021-05-12T21:48:41Z</time>
      </trkpt>
      <trkpt lat="47.32189" lon="-0.53754">
        <ele>93.8</ele>
        <time>2021-05-12T21:48:50Z</time>
      </trkpt>
      <trkpt lat="47.32191" lon="-0.53748">
        <ele>94</ele>
        <time>2021-05-12T21:48:51Z</time>
      </trkpt>
      <trkpt lat="47.32194" lon="-0.53734">
        <ele>94.2</ele>
        <time>2021-05-12T21:48:54Z</time>
      </trkpt>
      <trkpt lat="47.32209" lon="-0.53673">
        <ele>94.8</ele>
        <time>2021-05-12T21:49:02Z</time>
      </trkpt>
      <trkpt lat="47.32218" lon="-0.53638">
        <ele>94.8</ele>
        <time>2021-05-12T21:49:07Z</time>
      </trkpt>
      <trkpt lat="47.3222" lon="-0.53621">
        <ele>95</ele>
        <time>2021-05-12T21:49:10Z</time>
      </trkpt>
      <trkpt lat="47.32224" lon="-0.53604">
        <ele>95</ele>
        <time>2021-05-12T21:49:12Z</time>
      </trkpt>
      <trkpt lat="47.32239" lon="-0.53559">
        <ele>95.2</ele>
        <time>2021-05-12T21:49:19Z</time>
      </trkpt>
      <trkpt lat="47.32288" lon="-0.53387">
        <ele>95.6</ele>
        <time>2021-05-12T21:49:44Z</time>
      </trkpt>
      <trkpt lat="47.32312" lon="-0.53311">
        <ele>95.8</ele>
        <time>2021-05-12T21:49:56Z</time>
      </trkpt>
      <trkpt lat="47.32312" lon="-0.53305">
        <ele>95.8</ele>
        <time>2021-05-12T21:49:57Z</time>
      </trkpt>
      <trkpt lat="47.32351" lon="-0.53139">
        <ele>96.8</ele>
        <time>2021-05-12T21:50:21Z</time>
      </trkpt>
      <trkpt lat="47.3238" lon="-0.53051">
        <ele>96.2</ele>
        <time>2021-05-12T21:50:34Z</time>
      </trkpt>
      <trkpt lat="47.32405" lon="-0.52965">
        <ele>95</ele>
        <time>2021-05-12T21:50:47Z</time>
      </trkpt>
      <trkpt lat="47.32407" lon="-0.52958">
        <ele>95</ele>
        <time>2021-05-12T21:50:48Z</time>
      </trkpt>
      <trkpt lat="47.32436" lon="-0.52857">
        <ele>93</ele>
        <time>2021-05-12T21:51:02Z</time>
      </trkpt>
      <trkpt lat="47.32447" lon="-0.52811">
        <ele>92</ele>
        <time>2021-05-12T21:51:09Z</time>
      </trkpt>
      <trkpt lat="47.32474" lon="-0.52721">
        <ele>91.6</ele>
        <time>2021-05-12T21:51:23Z</time>
      </trkpt>
      <trkpt lat="47.32501" lon="-0.52657">
        <ele>90.4</ele>
        <time>2021-05-12T21:51:33Z</time>
      </trkpt>
      <trkpt lat="47.32536" lon="-0.52579">
        <ele>90</ele>
        <time>2021-05-12T21:51:46Z</time>
      </trkpt>
      <trkpt lat="47.32664" lon="-0.5225">
        <ele>88</ele>
        <time>2021-05-12T21:52:37Z</time>
      </trkpt>
      <trkpt lat="47.32728" lon="-0.52064">
        <ele>87</ele>
        <time>2021-05-12T21:53:06Z</time>
      </trkpt>
      <trkpt lat="47.32753" lon="-0.51978">
        <ele>87</ele>
        <time>2021-05-12T21:53:18Z</time>
      </trkpt>
      <trkpt lat="47.32777" lon="-0.51897">
        <ele>85.8</ele>
        <time>2021-05-12T21:53:30Z</time>
      </trkpt>
      <trkpt lat="47.32806" lon="-0.51824">
        <ele>85</ele>
        <time>2021-05-12T21:53:42Z</time>
      </trkpt>
      <trkpt lat="47.32837" lon="-0.51733">
        <ele>85</ele>
        <time>2021-05-12T21:53:56Z</time>
      </trkpt>
      <trkpt lat="47.32839" lon="-0.51719">
        <ele>85</ele>
        <time>2021-05-12T21:53:57Z</time>
      </trkpt>
      <trkpt lat="47.32839" lon="-0.51705">
        <ele>84.8</ele>
        <time>2021-05-12T21:53:59Z</time>
      </trkpt>
      <trkpt lat="47.32837" lon="-0.51689">
        <ele>84.4</ele>
        <time>2021-05-12T21:54:02Z</time>
      </trkpt>
      <trkpt lat="47.32832" lon="-0.51671">
        <ele>84.2</ele>
        <time>2021-05-12T21:54:04Z</time>
      </trkpt>
      <trkpt lat="47.32814" lon="-0.51636">
        <ele>84.4</ele>
        <time>2021-05-12T21:54:10Z</time>
      </trkpt>
      <trkpt lat="47.32765" lon="-0.51618">
        <ele>85.8</ele>
        <time>2021-05-12T21:54:20Z</time>
      </trkpt>
      <trkpt lat="47.32764" lon="-0.51614">
        <ele>85.8</ele>
        <time>2021-05-12T21:54:21Z</time>
      </trkpt>
      <trkpt lat="47.32775" lon="-0.51536">
        <ele>85.6</ele>
        <time>2021-05-12T21:54:32Z</time>
      </trkpt>
      <trkpt lat="47.32804" lon="-0.51459">
        <ele>85.4</ele>
        <time>2021-05-12T21:54:44Z</time>
      </trkpt>
      <trkpt lat="47.32823" lon="-0.51392">
        <ele>85.4</ele>
        <time>2021-05-12T21:54:54Z</time>
      </trkpt>
      <trkpt lat="47.32826" lon="-0.51382">
        <ele>85.4</ele>
        <time>2021-05-12T21:54:55Z</time>
      </trkpt>
      <trkpt lat="47.32825" lon="-0.51374">
        <ele>85.4</ele>
        <time>2021-05-12T21:54:56Z</time>
      </trkpt>
      <trkpt lat="47.32822" lon="-0.51365">
        <ele>85.6</ele>
        <time>2021-05-12T21:54:58Z</time>
      </trkpt>
      <trkpt lat="47.32821" lon="-0.51354">
        <ele>85.6</ele>
        <time>2021-05-12T21:54:59Z</time>
      </trkpt>
      <trkpt lat="47.3282" lon="-0.51335">
        <ele>85.8</ele>
        <time>2021-05-12T21:55:02Z</time>
      </trkpt>
      <trkpt lat="47.32824" lon="-0.51256">
        <ele>85.8</ele>
        <time>2021-05-12T21:55:13Z</time>
      </trkpt>
      <trkpt lat="47.32828" lon="-0.51246">
        <ele>85.8</ele>
        <time>2021-05-12T21:55:14Z</time>
      </trkpt>
      <trkpt lat="47.32834" lon="-0.51245">
        <ele>85.6</ele>
        <time>2021-05-12T21:55:15Z</time>
      </trkpt>
      <trkpt lat="47.32842" lon="-0.51248">
        <ele>85.2</ele>
        <time>2021-05-12T21:55:17Z</time>
      </trkpt>
      <trkpt lat="47.32851" lon="-0.51253">
        <ele>85</ele>
        <time>2021-05-12T21:55:19Z</time>
      </trkpt>
      <trkpt lat="47.32901" lon="-0.51301">
        <ele>82.8</ele>
        <time>2021-05-12T21:55:31Z</time>
      </trkpt>
      <trkpt lat="47.33048" lon="-0.51449">
        <ele>83</ele>
        <time>2021-05-12T21:56:07Z</time>
      </trkpt>
      <trkpt lat="47.33105" lon="-0.51506">
        <ele>84.4</ele>
        <time>2021-05-12T21:56:20Z</time>
      </trkpt>
      <trkpt lat="47.33157" lon="-0.51553">
        <ele>83.8</ele>
        <time>2021-05-12T21:56:32Z</time>
      </trkpt>
      <trkpt lat="47.33187" lon="-0.51576">
        <ele>83.2</ele>
        <time>2021-05-12T21:56:39Z</time>
      </trkpt>
      <trkpt lat="47.33229" lon="-0.51598">
        <ele>82.4</ele>
        <time>2021-05-12T21:56:48Z</time>
      </trkpt>
      <trkpt lat="47.33263" lon="-0.51626">
        <ele>81.2</ele>
        <time>2021-05-12T21:56:56Z</time>
      </trkpt>
      <trkpt lat="47.33295" lon="-0.51663">
        <ele>80</ele>
        <time>2021-05-12T21:57:04Z</time>
      </trkpt>
      <trkpt lat="47.33322" lon="-0.51708">
        <ele>79.2</ele>
        <time>2021-05-12T21:57:12Z</time>
      </trkpt>
      <trkpt lat="47.3336" lon="-0.51762">
        <ele>78.4</ele>
        <time>2021-05-12T21:57:23Z</time>
      </trkpt>
      <trkpt lat="47.33376" lon="-0.51779">
        <ele>78.2</ele>
        <time>2021-05-12T21:57:27Z</time>
      </trkpt>
      <trkpt lat="47.33398" lon="-0.51795">
        <ele>78</ele>
        <time>2021-05-12T21:57:32Z</time>
      </trkpt>
      <trkpt lat="47.33508" lon="-0.51838">
        <ele>79.2</ele>
        <time>2021-05-12T21:57:54Z</time>
      </trkpt>
      <trkpt lat="47.33512" lon="-0.51837">
        <ele>79.2</ele>
        <time>2021-05-12T21:57:55Z</time>
      </trkpt>
      <trkpt lat="47.33516" lon="-0.51835">
        <ele>79.4</ele>
        <time>2021-05-12T21:57:56Z</time>
      </trkpt>
      <trkpt lat="47.33518" lon="-0.5183">
        <ele>79.4</ele>
        <time>2021-05-12T21:57:57Z</time>
      </trkpt>
      <trkpt lat="47.33522" lon="-0.51818">
        <ele>79.2</ele>
        <time>2021-05-12T21:57:59Z</time>
      </trkpt>
      <trkpt lat="47.33534" lon="-0.5179">
        <ele>79</ele>
        <time>2021-05-12T21:58:03Z</time>
      </trkpt>
      <trkpt lat="47.33564" lon="-0.51718">
        <ele>78</ele>
        <time>2021-05-12T21:58:15Z</time>
      </trkpt>
      <trkpt lat="47.33567" lon="-0.51713">
        <ele>77.8</ele>
        <time>2021-05-12T21:58:16Z</time>
      </trkpt>
      <trkpt lat="47.33574" lon="-0.51705">
        <ele>77.8</ele>
        <time>2021-05-12T21:58:17Z</time>
      </trkpt>
      <trkpt lat="47.33578" lon="-0.51703">
        <ele>77.8</ele>
        <time>2021-05-12T21:58:18Z</time>
      </trkpt>
      <trkpt lat="47.33592" lon="-0.51703">
        <ele>78</ele>
        <time>2021-05-12T21:58:21Z</time>
      </trkpt>
      <trkpt lat="47.33646" lon="-0.51712">
        <ele>79.4</ele>
        <time>2021-05-12T21:58:32Z</time>
      </trkpt>
      <trkpt lat="47.33667" lon="-0.51714">
        <ele>80.4</ele>
        <time>2021-05-12T21:58:36Z</time>
      </trkpt>
      <trkpt lat="47.33694" lon="-0.51716">
        <ele>81.8</ele>
        <time>2021-05-12T21:58:42Z</time>
      </trkpt>
      <trkpt lat="47.33716" lon="-0.51718">
        <ele>83</ele>
        <time>2021-05-12T21:58:46Z</time>
      </trkpt>
      <trkpt lat="47.3376" lon="-0.51722">
        <ele>85.4</ele>
        <time>2021-05-12T21:58:55Z</time>
      </trkpt>
      <trkpt lat="47.33796" lon="-0.51727">
        <ele>86.6</ele>
        <time>2021-05-12T21:59:02Z</time>
      </trkpt>
      <trkpt lat="47.33856" lon="-0.51729">
        <ele>88.6</ele>
        <time>2021-05-12T21:59:14Z</time>
      </trkpt>
      <trkpt lat="47.3391" lon="-0.51738">
        <ele>90</ele>
        <time>2021-05-12T21:59:25Z</time>
      </trkpt>
      <trkpt lat="47.3397" lon="-0.51743">
        <ele>91</ele>
        <time>2021-05-12T21:59:37Z</time>
      </trkpt>
      <trkpt lat="47.34003" lon="-0.51753">
        <ele>91</ele>
        <time>2021-05-12T21:59:44Z</time>
      </trkpt>
      <trkpt lat="47.34022" lon="-0.51751">
        <ele>91</ele>
        <time>2021-05-12T21:59:48Z</time>
      </trkpt>
      <trkpt lat="47.34082" lon="-0.51756">
        <ele>91</ele>
        <time>2021-05-12T21:59:59Z</time>
      </trkpt>
      <trkpt lat="47.34088" lon="-0.51747">
        <ele>91</ele>
        <time>2021-05-12T22:00:01Z</time>
      </trkpt>
      <trkpt lat="47.34118" lon="-0.51711">
        <ele>91</ele>
        <time>2021-05-12T22:00:09Z</time>
      </trkpt>
      <trkpt lat="47.34152" lon="-0.51715">
        <ele>91</ele>
        <time>2021-05-12T22:00:16Z</time>
      </trkpt>
      <trkpt lat="47.34157" lon="-0.51715">
        <ele>91</ele>
        <time>2021-05-12T22:00:17Z</time>
      </trkpt>
      <trkpt lat="47.3422" lon="-0.51683">
        <ele>90.2</ele>
        <time>2021-05-12T22:00:30Z</time>
      </trkpt>
      <trkpt lat="47.34267" lon="-0.51653">
        <ele>89.2</ele>
        <time>2021-05-12T22:00:41Z</time>
      </trkpt>
      <trkpt lat="47.34297" lon="-0.51638">
        <ele>88.4</ele>
        <time>2021-05-12T22:00:47Z</time>
      </trkpt>
      <trkpt lat="47.34313" lon="-0.51643">
        <ele>88</ele>
        <time>2021-05-12T22:00:50Z</time>
      </trkpt>
      <trkpt lat="47.34313" lon="-0.5165">
        <ele>88</ele>
        <time>2021-05-12T22:00:51Z</time>
      </trkpt>
      <trkpt lat="47.34318" lon="-0.51665">
        <ele>88</ele>
        <time>2021-05-12T22:00:54Z</time>
      </trkpt>
      <trkpt lat="47.3431" lon="-0.51749">
        <ele>87</ele>
        <time>2021-05-12T22:01:05Z</time>
      </trkpt>
      <trkpt lat="47.34295" lon="-0.51806">
        <ele>86.8</ele>
        <time>2021-05-12T22:01:13Z</time>
      </trkpt>
      <trkpt lat="47.34294" lon="-0.51812">
        <ele>86.8</ele>
        <time>2021-05-12T22:01:14Z</time>
      </trkpt>
      <trkpt lat="47.34296" lon="-0.5183">
        <ele>86.4</ele>
        <time>2021-05-12T22:01:17Z</time>
      </trkpt>
      <trkpt lat="47.34329" lon="-0.51885">
        <ele>83.6</ele>
        <time>2021-05-12T22:01:27Z</time>
      </trkpt>
      <trkpt lat="47.3433" lon="-0.51899">
        <ele>83.4</ele>
        <time>2021-05-12T22:01:29Z</time>
      </trkpt>
      <trkpt lat="47.34327" lon="-0.52005">
        <ele>82.2</ele>
        <time>2021-05-12T22:01:43Z</time>
      </trkpt>
      <trkpt lat="47.34313" lon="-0.52095">
        <ele>84</ele>
        <time>2021-05-12T22:01:56Z</time>
      </trkpt>
      <trkpt lat="47.34336" lon="-0.52146">
        <ele>85.8</ele>
        <time>2021-05-12T22:02:04Z</time>
      </trkpt>
      <trkpt lat="47.34402" lon="-0.5226">
        <ele>87</ele>
        <time>2021-05-12T22:02:24Z</time>
      </trkpt>
      <trkpt lat="47.34424" lon="-0.52271">
        <ele>87</ele>
        <time>2021-05-12T22:02:29Z</time>
      </trkpt>
      <trkpt lat="47.34484" lon="-0.5228">
        <ele>87</ele>
        <time>2021-05-12T22:02:41Z</time>
      </trkpt>
      <trkpt lat="47.34543" lon="-0.52297">
        <ele>86</ele>
        <time>2021-05-12T22:02:53Z</time>
      </trkpt>
      <trkpt lat="47.34599" lon="-0.52328">
        <ele>84.6</ele>
        <time>2021-05-12T22:03:05Z</time>
      </trkpt>
      <trkpt lat="47.34663" lon="-0.52384">
        <ele>82.8</ele>
        <time>2021-05-12T22:03:20Z</time>
      </trkpt>
      <trkpt lat="47.3468" lon="-0.52395">
        <ele>82</ele>
        <time>2021-05-12T22:03:24Z</time>
      </trkpt>
      <trkpt lat="47.34697" lon="-0.52401">
        <ele>81.4</ele>
        <time>2021-05-12T22:03:27Z</time>
      </trkpt>
      <trkpt lat="47.34721" lon="-0.52408">
        <ele>80.2</ele>
        <time>2021-05-12T22:03:32Z</time>
      </trkpt>
      <trkpt lat="47.34743" lon="-0.52416">
        <ele>79.2</ele>
        <time>2021-05-12T22:03:37Z</time>
      </trkpt>
      <trkpt lat="47.34747" lon="-0.52419">
        <ele>79</ele>
        <time>2021-05-12T22:03:38Z</time>
      </trkpt>
      <trkpt lat="47.34755" lon="-0.52428">
        <ele>79</ele>
        <time>2021-05-12T22:03:40Z</time>
      </trkpt>
      <trkpt lat="47.34769" lon="-0.52456">
        <ele>80</ele>
        <time>2021-05-12T22:03:44Z</time>
      </trkpt>
      <trkpt lat="47.34783" lon="-0.5248">
        <ele>80.8</ele>
        <time>2021-05-12T22:03:49Z</time>
      </trkpt>
      <trkpt lat="47.34806" lon="-0.52513">
        <ele>81.6</ele>
        <time>2021-05-12T22:03:55Z</time>
      </trkpt>
      <trkpt lat="47.34848" lon="-0.52528">
        <ele>81.4</ele>
        <time>2021-05-12T22:04:04Z</time>
      </trkpt>
      <trkpt lat="47.34861" lon="-0.52529">
        <ele>81.2</ele>
        <time>2021-05-12T22:04:06Z</time>
      </trkpt>
      <trkpt lat="47.34885" lon="-0.52537">
        <ele>81</ele>
        <time>2021-05-12T22:04:11Z</time>
      </trkpt>
      <trkpt lat="47.34916" lon="-0.52545">
        <ele>80.2</ele>
        <time>2021-05-12T22:04:17Z</time>
      </trkpt>
      <trkpt lat="47.34953" lon="-0.52558">
        <ele>79.4</ele>
        <time>2021-05-12T22:04:25Z</time>
      </trkpt>
      <trkpt lat="47.35" lon="-0.526">
        <ele>77.2</ele>
        <time>2021-05-12T22:04:36Z</time>
      </trkpt>
      <trkpt lat="47.35029" lon="-0.52615">
        <ele>75.4</ele>
        <time>2021-05-12T22:04:42Z</time>
      </trkpt>
      <trkpt lat="47.3506" lon="-0.52625">
        <ele>73.2</ele>
        <time>2021-05-12T22:04:49Z</time>
      </trkpt>
      <trkpt lat="47.35087" lon="-0.5264">
        <ele>71</ele>
        <time>2021-05-12T22:04:54Z</time>
      </trkpt>
      <trkpt lat="47.35095" lon="-0.52649">
        <ele>70.2</ele>
        <time>2021-05-12T22:04:56Z</time>
      </trkpt>
      <trkpt lat="47.35103" lon="-0.52649">
        <ele>69.8</ele>
        <time>2021-05-12T22:04:58Z</time>
      </trkpt>
      <trkpt lat="47.35108" lon="-0.52643">
        <ele>69.4</ele>
        <time>2021-05-12T22:04:59Z</time>
      </trkpt>
      <trkpt lat="47.35137" lon="-0.52602">
        <ele>68.2</ele>
        <time>2021-05-12T22:05:07Z</time>
      </trkpt>
      <trkpt lat="47.35182" lon="-0.5253">
        <ele>66</ele>
        <time>2021-05-12T22:05:21Z</time>
      </trkpt>
      <trkpt lat="47.35202" lon="-0.525">
        <ele>65</ele>
        <time>2021-05-12T22:05:26Z</time>
      </trkpt>
      <trkpt lat="47.3521" lon="-0.52484">
        <ele>65.2</ele>
        <time>2021-05-12T22:05:29Z</time>
      </trkpt>
      <trkpt lat="47.35228" lon="-0.52449">
        <ele>64.6</ele>
        <time>2021-05-12T22:05:35Z</time>
      </trkpt>
      <trkpt lat="47.35273" lon="-0.52377">
        <ele>62.6</ele>
        <time>2021-05-12T22:05:48Z</time>
      </trkpt>
      <trkpt lat="47.35289" lon="-0.52339">
        <ele>61.8</ele>
        <time>2021-05-12T22:05:54Z</time>
      </trkpt>
      <trkpt lat="47.3532" lon="-0.52252">
        <ele>61.2</ele>
        <time>2021-05-12T22:06:08Z</time>
      </trkpt>
      <trkpt lat="47.35345" lon="-0.52205">
        <ele>59.6</ele>
        <time>2021-05-12T22:06:16Z</time>
      </trkpt>
      <trkpt lat="47.35352" lon="-0.52196">
        <ele>59.2</ele>
        <time>2021-05-12T22:06:18Z</time>
      </trkpt>
      <trkpt lat="47.35389" lon="-0.52199">
        <ele>56.6</ele>
        <time>2021-05-12T22:06:25Z</time>
      </trkpt>
      <trkpt lat="47.35434" lon="-0.52197">
        <ele>54.8</ele>
        <time>2021-05-12T22:06:34Z</time>
      </trkpt>
      <trkpt lat="47.35448" lon="-0.52169">
        <ele>54</ele>
        <time>2021-05-12T22:06:39Z</time>
      </trkpt>
      <trkpt lat="47.35458" lon="-0.52146">
        <ele>53.4</ele>
        <time>2021-05-12T22:06:43Z</time>
      </trkpt>
      <trkpt lat="47.35492" lon="-0.52086">
        <ele>51</ele>
        <time>2021-05-12T22:06:53Z</time>
      </trkpt>
      <trkpt lat="47.35528" lon="-0.51972">
        <ele>49</ele>
        <time>2021-05-12T22:07:10Z</time>
      </trkpt>
      <trkpt lat="47.35528" lon="-0.51965">
        <ele>49</ele>
        <time>2021-05-12T22:07:11Z</time>
      </trkpt>
      <trkpt lat="47.35524" lon="-0.5196">
        <ele>49</ele>
        <time>2021-05-12T22:07:12Z</time>
      </trkpt>
      <trkpt lat="47.35519" lon="-0.51951">
        <ele>49.4</ele>
        <time>2021-05-12T22:07:14Z</time>
      </trkpt>
      <trkpt lat="47.35519" lon="-0.51943">
        <ele>49.4</ele>
        <time>2021-05-12T22:07:15Z</time>
      </trkpt>
      <trkpt lat="47.35521" lon="-0.51925">
        <ele>49.6</ele>
        <time>2021-05-12T22:07:17Z</time>
      </trkpt>
      <trkpt lat="47.35524" lon="-0.51905">
        <ele>50</ele>
        <time>2021-05-12T22:07:20Z</time>
      </trkpt>
      <trkpt lat="47.35537" lon="-0.51854">
        <ele>50.8</ele>
        <time>2021-05-12T22:07:28Z</time>
      </trkpt>
      <trkpt lat="47.35581" lon="-0.51733">
        <ele>49.8</ele>
        <time>2021-05-12T22:07:46Z</time>
      </trkpt>
      <trkpt lat="47.35609" lon="-0.51667">
        <ele>49</ele>
        <time>2021-05-12T22:07:57Z</time>
      </trkpt>
      <trkpt lat="47.35631" lon="-0.51622">
        <ele>49.2</ele>
        <time>2021-05-12T22:08:04Z</time>
      </trkpt>
      <trkpt lat="47.35661" lon="-0.51579">
        <ele>48.8</ele>
        <time>2021-05-12T22:08:13Z</time>
      </trkpt>
      <trkpt lat="47.35748" lon="-0.51491">
        <ele>50.2</ele>
        <time>2021-05-12T22:08:34Z</time>
      </trkpt>
      <trkpt lat="47.35766" lon="-0.51468">
        <ele>51.8</ele>
        <time>2021-05-12T22:08:39Z</time>
      </trkpt>
      <trkpt lat="47.35788" lon="-0.51442">
        <ele>53.2</ele>
        <time>2021-05-12T22:08:44Z</time>
      </trkpt>
      <trkpt lat="47.3583" lon="-0.51364">
        <ele>54.4</ele>
        <time>2021-05-12T22:08:58Z</time>
      </trkpt>
      <trkpt lat="47.35837" lon="-0.51361">
        <ele>54.4</ele>
        <time>2021-05-12T22:08:59Z</time>
      </trkpt>
      <trkpt lat="47.35841" lon="-0.51362">
        <ele>54.2</ele>
        <time>2021-05-12T22:09:00Z</time>
      </trkpt>
      <trkpt lat="47.35881" lon="-0.51393">
        <ele>52.2</ele>
        <time>2021-05-12T22:09:09Z</time>
      </trkpt>
      <trkpt lat="47.35915" lon="-0.51422">
        <ele>50</ele>
        <time>2021-05-12T22:09:17Z</time>
      </trkpt>
      <trkpt lat="47.3592" lon="-0.51429">
        <ele>49.4</ele>
        <time>2021-05-12T22:09:18Z</time>
      </trkpt>
      <trkpt lat="47.35948" lon="-0.51478">
        <ele>44.6</ele>
        <time>2021-05-12T22:09:27Z</time>
      </trkpt>
      <trkpt lat="47.35982" lon="-0.51553">
        <ele>43.8</ele>
        <time>2021-05-12T22:09:39Z</time>
      </trkpt>
      <trkpt lat="47.36003" lon="-0.51602">
        <ele>45.4</ele>
        <time>2021-05-12T22:09:47Z</time>
      </trkpt>
      <trkpt lat="47.36014" lon="-0.51622">
        <ele>46</ele>
        <time>2021-05-12T22:09:51Z</time>
      </trkpt>
      <trkpt lat="47.36034" lon="-0.51687">
        <ele>47.2</ele>
        <time>2021-05-12T22:10:00Z</time>
      </trkpt>
      <trkpt lat="47.36049" lon="-0.51766">
        <ele>46.8</ele>
        <time>2021-05-12T22:10:12Z</time>
      </trkpt>
      <trkpt lat="47.3606" lon="-0.518">
        <ele>46.2</ele>
        <time>2021-05-12T22:10:17Z</time>
      </trkpt>
      <trkpt lat="47.36066" lon="-0.51808">
        <ele>45.8</ele>
        <time>2021-05-12T22:10:18Z</time>
      </trkpt>
      <trkpt lat="47.36115" lon="-0.51857">
        <ele>48.8</ele>
        <time>2021-05-12T22:10:30Z</time>
      </trkpt>
      <trkpt lat="47.36142" lon="-0.51896">
        <ele>50.6</ele>
        <time>2021-05-12T22:10:38Z</time>
      </trkpt>
      <trkpt lat="47.36187" lon="-0.51951">
        <ele>51.8</ele>
        <time>2021-05-12T22:10:50Z</time>
      </trkpt>
      <trkpt lat="47.36227" lon="-0.51983">
        <ele>50.8</ele>
        <time>2021-05-12T22:10:59Z</time>
      </trkpt>
      <trkpt lat="47.36236" lon="-0.51987">
        <ele>50.6</ele>
        <time>2021-05-12T22:11:00Z</time>
      </trkpt>
      <trkpt lat="47.3627" lon="-0.51995">
        <ele>49</ele>
        <time>2021-05-12T22:11:07Z</time>
      </trkpt>
      <trkpt lat="47.36305" lon="-0.52005">
        <ele>47.4</ele>
        <time>2021-05-12T22:11:14Z</time>
      </trkpt>
      <trkpt lat="47.36327" lon="-0.52014">
        <ele>46.2</ele>
        <time>2021-05-12T22:11:19Z</time>
      </trkpt>
      <trkpt lat="47.36338" lon="-0.5202">
        <ele>45.8</ele>
        <time>2021-05-12T22:11:21Z</time>
      </trkpt>
      <trkpt lat="47.3636" lon="-0.52035">
        <ele>44.8</ele>
        <time>2021-05-12T22:11:26Z</time>
      </trkpt>
      <trkpt lat="47.36389" lon="-0.5207">
        <ele>44.2</ele>
        <time>2021-05-12T22:11:34Z</time>
      </trkpt>
      <trkpt lat="47.36395" lon="-0.52082">
        <ele>44.4</ele>
        <time>2021-05-12T22:11:36Z</time>
      </trkpt>
      <trkpt lat="47.36399" lon="-0.52087">
        <ele>44.6</ele>
        <time>2021-05-12T22:11:37Z</time>
      </trkpt>
      <trkpt lat="47.36409" lon="-0.52096">
        <ele>45</ele>
        <time>2021-05-12T22:11:39Z</time>
      </trkpt>
      <trkpt lat="47.36415" lon="-0.52108">
        <ele>45.6</ele>
        <time>2021-05-12T22:11:41Z</time>
      </trkpt>
      <trkpt lat="47.36422" lon="-0.52119">
        <ele>46.2</ele>
        <time>2021-05-12T22:11:43Z</time>
      </trkpt>
      <trkpt lat="47.3644" lon="-0.52144">
        <ele>47.6</ele>
        <time>2021-05-12T22:11:48Z</time>
      </trkpt>
      <trkpt lat="47.36442" lon="-0.52184">
        <ele>48.6</ele>
        <time>2021-05-12T22:11:54Z</time>
      </trkpt>
      <trkpt lat="47.36419" lon="-0.5229">
        <ele>52.4</ele>
        <time>2021-05-12T22:12:09Z</time>
      </trkpt>
      <trkpt lat="47.36411" lon="-0.52372">
        <ele>54.6</ele>
        <time>2021-05-12T22:12:20Z</time>
      </trkpt>
      <trkpt lat="47.36433" lon="-0.52453">
        <ele>55.8</ele>
        <time>2021-05-12T22:12:32Z</time>
      </trkpt>
      <trkpt lat="47.36433" lon="-0.52471">
        <ele>55.8</ele>
        <time>2021-05-12T22:12:34Z</time>
      </trkpt>
    </trkseg>
  </trk>
</gpx>